<?xml version="1.0" encoding="UTF-8" standalone="no" ?>
<gpx xmlns="http://www.topografix.com/GPX/1/1" creator="MapSource 6.16.3" version="1.1" xmlns:xsi="http://www.w3.org/2001/XMLSchema-instance" xsi:schemaLocation="http://www.topografix.com/GPX/1/1 http://www.topografix.com/GPX/1/1/gpx.xsd">

  <metadata>
    <link href="http://www.garmin.com">
      <text>Garmin International</text>
    </link>
    <time>2016-09-06T14:53:17Z</time>
    <bounds maxlat="44.484350681304932" maxlon="11.272423267364502" minlat="44.442315101623535" minlon="11.195261478424072"/>
  </metadata>

  <trk>
    <name>ACTIVE LOG</name>
    <trkseg>
      <trkpt lat="44.479072093963623" lon="11.271865367889404">
        <ele>48</ele>
        <time>2005-01-22T07:50:26Z</time>
      </trkpt>
      <trkpt lat="44.479029178619385" lon="11.271564960479736">
        <ele>48</ele>
        <time>2005-01-22T07:50:36Z</time>
      </trkpt>
      <trkpt lat="44.478986263275146" lon="11.2712646368891">
        <ele>48</ele>
        <time>2005-01-22T07:50:50Z</time>
      </trkpt>
      <trkpt lat="44.478986263275146" lon="11.271114265546203">
        <ele>49</ele>
        <time>2005-01-22T08:01:21Z</time>
      </trkpt>
      <trkpt lat="44.478771686553955" lon="11.270577907562256">
        <ele>50</ele>
        <time>2005-01-22T08:01:40Z</time>
      </trkpt>
      <trkpt lat="44.478428363800049" lon="11.27023458480835">
        <ele>50</ele>
        <time>2005-01-22T08:01:54Z</time>
      </trkpt>
      <trkpt lat="44.477849006652832" lon="11.270062923431396">
        <ele>51</ele>
        <time>2005-01-22T08:02:12Z</time>
      </trkpt>
      <trkpt lat="44.477291107177734" lon="11.270255958661437">
        <ele>52</ele>
        <time>2005-01-22T08:02:31Z</time>
      </trkpt>
      <trkpt lat="44.476840496063232" lon="11.270642280578613">
        <ele>52</ele>
        <time>2005-01-22T08:02:48Z</time>
      </trkpt>
      <trkpt lat="44.476239681243896" lon="11.271200180053711">
        <ele>53</ele>
        <time>2005-01-22T08:03:09Z</time>
      </trkpt>
      <trkpt lat="44.475681781768799" lon="11.27171516418457">
        <ele>53</ele>
        <time>2005-01-22T08:03:30Z</time>
      </trkpt>
      <trkpt lat="44.475209712982178" lon="11.272058486938477">
        <ele>55</ele>
        <time>2005-01-22T08:03:48Z</time>
      </trkpt>
      <trkpt lat="44.474587440490723" lon="11.272315979003906">
        <ele>55</ele>
        <time>2005-01-22T08:04:09Z</time>
      </trkpt>
      <trkpt lat="44.474201202392578" lon="11.272401809692383">
        <ele>56</ele>
        <time>2005-01-22T08:04:26Z</time>
      </trkpt>
      <trkpt lat="44.473814964294434" lon="11.272423267364502">
        <ele>56</ele>
        <time>2005-01-22T08:04:39Z</time>
      </trkpt>
      <trkpt lat="44.4729567412287" lon="11.272294521331787">
        <ele>56</ele>
        <time>2005-01-22T08:05:04Z</time>
      </trkpt>
      <trkpt lat="44.472119808197021" lon="11.272144317626953">
        <ele>55</ele>
        <time>2005-01-22T08:05:25Z</time>
      </trkpt>
      <trkpt lat="44.471239959821105" lon="11.271972740069032">
        <ele>54</ele>
        <time>2005-01-22T08:05:46Z</time>
      </trkpt>
      <trkpt lat="44.470231533050537" lon="11.2716721650213">
        <ele>55</ele>
        <time>2005-01-22T08:06:13Z</time>
      </trkpt>
      <trkpt lat="44.469330310821533" lon="11.271178722381592">
        <ele>55</ele>
        <time>2005-01-22T08:06:39Z</time>
      </trkpt>
      <trkpt lat="44.468879699707031" lon="11.270921230316162">
        <ele>57</ele>
        <time>2005-01-22T08:06:57Z</time>
      </trkpt>
      <trkpt lat="44.46885815821588" lon="11.270921230316162">
        <ele>57</ele>
        <time>2005-01-22T08:06:59Z</time>
      </trkpt>
      <trkpt lat="44.468622207641602" lon="11.270771026611328">
        <ele>58</ele>
        <time>2005-01-22T08:07:09Z</time>
      </trkpt>
      <trkpt lat="44.468042934313416" lon="11.270449161529541">
        <ele>59</ele>
        <time>2005-01-22T08:07:26Z</time>
      </trkpt>
      <trkpt lat="44.467999935150146" lon="11.270427703857422">
        <ele>59</ele>
        <time>2005-01-22T08:07:27Z</time>
      </trkpt>
      <trkpt lat="44.467806816101074" lon="11.270363330841064">
        <ele>60</ele>
        <time>2005-01-22T08:07:32Z</time>
      </trkpt>
      <trkpt lat="44.467763900756836" lon="11.270341873168945">
        <ele>60</ele>
        <time>2005-01-22T08:07:33Z</time>
      </trkpt>
      <trkpt lat="44.466819763183594" lon="11.269783973693848">
        <ele>62</ele>
        <time>2005-01-22T08:08:00Z</time>
      </trkpt>
      <trkpt lat="44.466133117675781" lon="11.269397735595703">
        <ele>64</ele>
        <time>2005-01-22T08:08:18Z</time>
      </trkpt>
      <trkpt lat="44.465403640642762" lon="11.26896858215332">
        <ele>65</ele>
        <time>2005-01-22T08:08:38Z</time>
      </trkpt>
      <trkpt lat="44.464588165283203" lon="11.268582260236144">
        <ele>65</ele>
        <time>2005-01-22T08:09:00Z</time>
      </trkpt>
      <trkpt lat="44.464030265808105" lon="11.268196105957031">
        <ele>66</ele>
        <time>2005-01-22T08:09:18Z</time>
      </trkpt>
      <trkpt lat="44.463880062103271" lon="11.268110275268555">
        <ele>67</ele>
        <time>2005-01-22T08:09:23Z</time>
      </trkpt>
      <trkpt lat="44.463601112365723" lon="11.267745494842529">
        <ele>69</ele>
        <time>2005-01-22T08:09:35Z</time>
      </trkpt>
      <trkpt lat="44.463300704956055" lon="11.266930103302002">
        <ele>71</ele>
        <time>2005-01-22T08:09:56Z</time>
      </trkpt>
      <trkpt lat="44.463107585906982" lon="11.266415119171143">
        <ele>75</ele>
        <time>2005-01-22T08:10:16Z</time>
      </trkpt>
      <trkpt lat="44.462828636169434" lon="11.266329288482666">
        <ele>78</ele>
        <time>2005-01-22T08:10:30Z</time>
      </trkpt>
      <trkpt lat="44.46246393956244" lon="11.266179084777832">
        <ele>80</ele>
        <time>2005-01-22T08:10:48Z</time>
      </trkpt>
      <trkpt lat="44.462077617645264" lon="11.265900135040283">
        <ele>84</ele>
        <time>2005-01-22T08:11:09Z</time>
      </trkpt>
      <trkpt lat="44.462099075317383" lon="11.2654709815979">
        <ele>85</ele>
        <time>2005-01-22T08:11:23Z</time>
      </trkpt>
      <trkpt lat="44.462206363677979" lon="11.264913082122803">
        <ele>88</ele>
        <time>2005-01-22T08:11:42Z</time>
      </trkpt>
      <trkpt lat="44.462313735857606" lon="11.264333724975586">
        <ele>90</ele>
        <time>2005-01-22T08:12:02Z</time>
      </trkpt>
      <trkpt lat="44.462356567382812" lon="11.263904571533203">
        <ele>93</ele>
        <time>2005-01-22T08:12:20Z</time>
      </trkpt>
      <trkpt lat="44.462141990661621" lon="11.263775825500488">
        <ele>97</ele>
        <time>2005-01-22T08:12:34Z</time>
      </trkpt>
      <trkpt lat="44.461755836382508" lon="11.263647079467773">
        <ele>98</ele>
        <time>2005-01-22T08:12:54Z</time>
      </trkpt>
      <trkpt lat="44.461369514465332" lon="11.263518333435059">
        <ele>102</ele>
        <time>2005-01-22T08:13:13Z</time>
      </trkpt>
      <trkpt lat="44.461026191711426" lon="11.263325214385986">
        <ele>105</ele>
        <time>2005-01-22T08:13:31Z</time>
      </trkpt>
      <trkpt lat="44.461047565564513" lon="11.262938976287842">
        <ele>107</ele>
        <time>2005-01-22T08:13:45Z</time>
      </trkpt>
      <trkpt lat="44.461133480072021" lon="11.262509822845459">
        <ele>110</ele>
        <time>2005-01-22T08:14:02Z</time>
      </trkpt>
      <trkpt lat="44.461197936907411" lon="11.262144958600402">
        <ele>114</ele>
        <time>2005-01-22T08:14:17Z</time>
      </trkpt>
      <trkpt lat="44.461390972137451" lon="11.261823177337646">
        <ele>116</ele>
        <time>2005-01-22T08:14:34Z</time>
      </trkpt>
      <trkpt lat="44.461627006530762" lon="11.261479938402772">
        <ele>119</ele>
        <time>2005-01-22T08:14:52Z</time>
      </trkpt>
      <trkpt lat="44.461841583251953" lon="11.261157989501953">
        <ele>122</ele>
        <time>2005-01-22T08:15:09Z</time>
      </trkpt>
      <trkpt lat="44.462184906005859" lon="11.261007785797119">
        <ele>125</ele>
        <time>2005-01-22T08:15:28Z</time>
      </trkpt>
      <trkpt lat="44.462528228759766" lon="11.261179363355041">
        <ele>128</ele>
        <time>2005-01-22T08:15:47Z</time>
      </trkpt>
      <trkpt lat="44.462742805480957" lon="11.261372566223145">
        <ele>131</ele>
        <time>2005-01-22T08:16:01Z</time>
      </trkpt>
      <trkpt lat="44.463000297546387" lon="11.261479938402772">
        <ele>134</ele>
        <time>2005-01-22T08:16:19Z</time>
      </trkpt>
      <trkpt lat="44.46291446685791" lon="11.261286735534668">
        <ele>135</ele>
        <time>2005-01-22T08:16:31Z</time>
      </trkpt>
      <trkpt lat="44.462635517120361" lon="11.260964870452881">
        <ele>138</ele>
        <time>2005-01-22T08:16:49Z</time>
      </trkpt>
      <trkpt lat="44.462356567382812" lon="11.260621463879943">
        <ele>140</ele>
        <time>2005-01-22T08:17:09Z</time>
      </trkpt>
      <trkpt lat="44.462099075317383" lon="11.26023530960083">
        <ele>143</ele>
        <time>2005-01-22T08:17:30Z</time>
      </trkpt>
      <trkpt lat="44.461991786956787" lon="11.259784698486328">
        <ele>144</ele>
        <time>2005-01-22T08:17:48Z</time>
      </trkpt>
      <trkpt lat="44.461906040087342" lon="11.259291172027588">
        <ele>148</ele>
        <time>2005-01-22T08:18:09Z</time>
      </trkpt>
      <trkpt lat="44.461605465039611" lon="11.259205341339111">
        <ele>151</ele>
        <time>2005-01-22T08:18:25Z</time>
      </trkpt>
      <trkpt lat="44.461197936907411" lon="11.259205341339111">
        <ele>152</ele>
        <time>2005-01-22T08:18:46Z</time>
      </trkpt>
      <trkpt lat="44.460833072662354" lon="11.259205341339111">
        <ele>156</ele>
        <time>2005-01-22T08:19:05Z</time>
      </trkpt>
      <trkpt lat="44.460275173187256" lon="11.259055137634277">
        <ele>155</ele>
        <time>2005-01-22T08:19:29Z</time>
      </trkpt>
      <trkpt lat="44.459760189056396" lon="11.258690441027284">
        <ele>156</ele>
        <time>2005-01-22T08:19:50Z</time>
      </trkpt>
      <trkpt lat="44.459374034777284" lon="11.258282661437988">
        <ele>158</ele>
        <time>2005-01-22T08:20:08Z</time>
      </trkpt>
      <trkpt lat="44.459202289581299" lon="11.257767677307129">
        <ele>162</ele>
        <time>2005-01-22T08:20:27Z</time>
      </trkpt>
      <trkpt lat="44.459052085876465" lon="11.257295608520508">
        <ele>165</ele>
        <time>2005-01-22T08:20:47Z</time>
      </trkpt>
      <trkpt lat="44.458944797515869" lon="11.256909370422363">
        <ele>168</ele>
        <time>2005-01-22T08:21:04Z</time>
      </trkpt>
      <trkpt lat="44.458901882171631" lon="11.256759166717529">
        <ele>170</ele>
        <time>2005-01-22T08:21:10Z</time>
      </trkpt>
      <trkpt lat="44.458708763122559" lon="11.256158435717225">
        <ele>172</ele>
        <time>2005-01-22T08:21:34Z</time>
      </trkpt>
      <trkpt lat="44.458644390106201" lon="11.255621910095215">
        <ele>174</ele>
        <time>2005-01-22T08:21:55Z</time>
      </trkpt>
      <trkpt lat="44.45892333984375" lon="11.255364418029785">
        <ele>177</ele>
        <time>2005-01-22T08:22:12Z</time>
      </trkpt>
      <trkpt lat="44.459202289581299" lon="11.255106925964355">
        <ele>181</ele>
        <time>2005-01-22T08:22:29Z</time>
      </trkpt>
      <trkpt lat="44.459502696990967" lon="11.254806518554688">
        <ele>184</ele>
        <time>2005-01-22T08:22:47Z</time>
      </trkpt>
      <trkpt lat="44.45967435836792" lon="11.254656314849854">
        <ele>187</ele>
        <time>2005-01-22T08:22:58Z</time>
      </trkpt>
      <trkpt lat="44.459867477416992" lon="11.254398822784424">
        <ele>190</ele>
        <time>2005-01-22T08:23:13Z</time>
      </trkpt>
      <trkpt lat="44.45991039276123" lon="11.253883838653564">
        <ele>193</ele>
        <time>2005-01-22T08:23:33Z</time>
      </trkpt>
      <trkpt lat="44.459953308105469" lon="11.253583431243896">
        <ele>196</ele>
        <time>2005-01-22T08:23:45Z</time>
      </trkpt>
      <trkpt lat="44.459996223449707" lon="11.253046989440918">
        <ele>198</ele>
        <time>2005-01-22T08:24:04Z</time>
      </trkpt>
      <trkpt lat="44.460060596466064" lon="11.252532005310059">
        <ele>200</ele>
        <time>2005-01-22T08:24:21Z</time>
      </trkpt>
      <trkpt lat="44.460146427154541" lon="11.251866817474365">
        <ele>202</ele>
        <time>2005-01-22T08:24:44Z</time>
      </trkpt>
      <trkpt lat="44.460210800170898" lon="11.251416206359863">
        <ele>205</ele>
        <time>2005-01-22T08:25:00Z</time>
      </trkpt>
      <trkpt lat="44.460275173187256" lon="11.250858306884766">
        <ele>208</ele>
        <time>2005-01-22T08:25:19Z</time>
      </trkpt>
      <trkpt lat="44.460339462384582" lon="11.250364780426025">
        <ele>211</ele>
        <time>2005-01-22T08:25:36Z</time>
      </trkpt>
      <trkpt lat="44.460318088531494" lon="11.249721134081483">
        <ele>213</ele>
        <time>2005-01-22T08:25:57Z</time>
      </trkpt>
      <trkpt lat="44.460253715515137" lon="11.249098777770996">
        <ele>216</ele>
        <time>2005-01-22T08:26:18Z</time>
      </trkpt>
      <trkpt lat="44.460210800170898" lon="11.248626708984375">
        <ele>219</ele>
        <time>2005-01-22T08:26:35Z</time>
      </trkpt>
      <trkpt lat="44.459974765777588" lon="11.24849796295166">
        <ele>219</ele>
        <time>2005-01-22T08:26:48Z</time>
      </trkpt>
      <trkpt lat="44.45941686630249" lon="11.248347759246826">
        <ele>219</ele>
        <time>2005-01-22T08:27:09Z</time>
      </trkpt>
      <trkpt lat="44.459116458892822" lon="11.248283386230469">
        <ele>222</ele>
        <time>2005-01-22T08:27:22Z</time>
      </trkpt>
      <trkpt lat="44.458665763959289" lon="11.248197639361024">
        <ele>225</ele>
        <time>2005-01-22T08:27:44Z</time>
      </trkpt>
      <trkpt lat="44.45842981338501" lon="11.248068809509277">
        <ele>227</ele>
        <time>2005-01-22T08:27:58Z</time>
      </trkpt>
      <trkpt lat="44.458515560254455" lon="11.247553825378418">
        <ele>230</ele>
        <time>2005-01-22T08:28:17Z</time>
      </trkpt>
      <trkpt lat="44.458601474761963" lon="11.247060298919678">
        <ele>231</ele>
        <time>2005-01-22T08:28:35Z</time>
      </trkpt>
      <trkpt lat="44.458665763959289" lon="11.246695518493652">
        <ele>233</ele>
        <time>2005-01-22T08:28:48Z</time>
      </trkpt>
      <trkpt lat="44.458837509155273" lon="11.246287822723389">
        <ele>237</ele>
        <time>2005-01-22T08:29:07Z</time>
      </trkpt>
      <trkpt lat="44.459073459729552" lon="11.245944499969482">
        <ele>239</ele>
        <time>2005-01-22T08:29:27Z</time>
      </trkpt>
      <trkpt lat="44.459223663434386" lon="11.245729923248291">
        <ele>243</ele>
        <time>2005-01-22T08:29:40Z</time>
      </trkpt>
      <trkpt lat="44.459459781646729" lon="11.245408058166504">
        <ele>246</ele>
        <time>2005-01-22T08:29:59Z</time>
      </trkpt>
      <trkpt lat="44.45967435836792" lon="11.245086193084717">
        <ele>248</ele>
        <time>2005-01-22T08:30:17Z</time>
      </trkpt>
      <trkpt lat="44.459867477416992" lon="11.244828701019287">
        <ele>252</ele>
        <time>2005-01-22T08:30:34Z</time>
      </trkpt>
      <trkpt lat="44.459974765777588" lon="11.244635581970215">
        <ele>255</ele>
        <time>2005-01-22T08:30:45Z</time>
      </trkpt>
      <trkpt lat="44.460082137957215" lon="11.244335174560547">
        <ele>259</ele>
        <time>2005-01-22T08:30:59Z</time>
      </trkpt>
      <trkpt lat="44.460189258679748" lon="11.243991935625672">
        <ele>262</ele>
        <time>2005-01-22T08:31:16Z</time>
      </trkpt>
      <trkpt lat="44.460275173187256" lon="11.243669986724854">
        <ele>265</ele>
        <time>2005-01-22T08:31:31Z</time>
      </trkpt>
      <trkpt lat="44.460296630859375" lon="11.243348121643066">
        <ele>268</ele>
        <time>2005-01-22T08:31:46Z</time>
      </trkpt>
      <trkpt lat="44.460253715515137" lon="11.242961883544922">
        <ele>272</ele>
        <time>2005-01-22T08:32:04Z</time>
      </trkpt>
      <trkpt lat="44.460318088531494" lon="11.242661476135254">
        <ele>274</ele>
        <time>2005-01-22T08:32:19Z</time>
      </trkpt>
      <trkpt lat="44.460403919219971" lon="11.242296695709229">
        <ele>277</ele>
        <time>2005-01-22T08:32:37Z</time>
      </trkpt>
      <trkpt lat="44.460446834564209" lon="11.242060661315918">
        <ele>280</ele>
        <time>2005-01-22T08:32:49Z</time>
      </trkpt>
      <trkpt lat="44.460339462384582" lon="11.241846084594727">
        <ele>284</ele>
        <time>2005-01-22T08:33:01Z</time>
      </trkpt>
      <trkpt lat="44.46016788482666" lon="11.241631507873535">
        <ele>287</ele>
        <time>2005-01-22T08:33:14Z</time>
      </trkpt>
      <trkpt lat="44.459931934252381" lon="11.241395473480225">
        <ele>289</ele>
        <time>2005-01-22T08:33:32Z</time>
      </trkpt>
      <trkpt lat="44.459738731384277" lon="11.241202438250184">
        <ele>289</ele>
        <time>2005-01-22T08:33:49Z</time>
      </trkpt>
      <trkpt lat="44.459524238482118" lon="11.240987777709961">
        <ele>290</ele>
        <time>2005-01-22T08:34:09Z</time>
      </trkpt>
      <trkpt lat="44.459395408630371" lon="11.240880489349365">
        <ele>291</ele>
        <time>2005-01-22T08:34:27Z</time>
      </trkpt>
      <trkpt lat="44.459374034777284" lon="11.240880489349365">
        <ele>291</ele>
        <time>2005-01-22T08:34:37Z</time>
      </trkpt>
      <trkpt lat="44.459352493286133" lon="11.240644538775086">
        <ele>295</ele>
        <time>2005-01-22T08:34:52Z</time>
      </trkpt>
      <trkpt lat="44.459352493286133" lon="11.240644538775086">
        <ele>295</ele>
        <time>2005-01-22T08:35:01Z</time>
      </trkpt>
      <trkpt lat="44.459374034777284" lon="11.240601539611816">
        <ele>296</ele>
        <time>2005-01-22T08:35:13Z</time>
      </trkpt>
      <trkpt lat="44.459395408630371" lon="11.240472793579102">
        <ele>296</ele>
        <time>2005-01-22T08:35:27Z</time>
      </trkpt>
      <trkpt lat="44.45941686630249" lon="11.240365505218506">
        <ele>298</ele>
        <time>2005-01-22T08:35:43Z</time>
      </trkpt>
      <trkpt lat="44.45941686630249" lon="11.240365505218506">
        <ele>298</ele>
        <time>2005-01-22T08:35:58Z</time>
      </trkpt>
      <trkpt lat="44.459374034777284" lon="11.240322589874268">
        <ele>298</ele>
        <time>2005-01-22T08:36:34Z</time>
      </trkpt>
      <trkpt lat="44.459309577941895" lon="11.240279674530029">
        <ele>299</ele>
        <time>2005-01-22T08:36:49Z</time>
      </trkpt>
      <trkpt lat="44.459288120269775" lon="11.240279674530029">
        <ele>299</ele>
        <time>2005-01-22T08:36:55Z</time>
      </trkpt>
      <trkpt lat="44.459009170532227" lon="11.240215301513672">
        <ele>301</ele>
        <time>2005-01-22T08:37:12Z</time>
      </trkpt>
      <trkpt lat="44.458687305450439" lon="11.240172386169434">
        <ele>303</ele>
        <time>2005-01-22T08:37:31Z</time>
      </trkpt>
      <trkpt lat="44.458665763959289" lon="11.240172386169434">
        <ele>304</ele>
        <time>2005-01-22T08:37:33Z</time>
      </trkpt>
      <trkpt lat="44.458601474761963" lon="11.240193760022521">
        <ele>304</ele>
        <time>2005-01-22T08:37:44Z</time>
      </trkpt>
      <trkpt lat="44.458408439531922" lon="11.240172386169434">
        <ele>305</ele>
        <time>2005-01-22T08:38:04Z</time>
      </trkpt>
      <trkpt lat="44.458193778991699" lon="11.240086639299989">
        <ele>308</ele>
        <time>2005-01-22T08:38:27Z</time>
      </trkpt>
      <trkpt lat="44.458129405975342" lon="11.239979267120361">
        <ele>309</ele>
        <time>2005-01-22T08:38:39Z</time>
      </trkpt>
      <trkpt lat="44.45817232131958" lon="11.239721775054932">
        <ele>308</ele>
        <time>2005-01-22T08:38:46Z</time>
      </trkpt>
      <trkpt lat="44.458236694335938" lon="11.239421367645264">
        <ele>305</ele>
        <time>2005-01-22T08:38:51Z</time>
      </trkpt>
      <trkpt lat="44.458301067352295" lon="11.238949298858643">
        <ele>302</ele>
        <time>2005-01-22T08:38:58Z</time>
      </trkpt>
      <trkpt lat="44.458193778991699" lon="11.238648891448975">
        <ele>301</ele>
        <time>2005-01-22T08:39:03Z</time>
      </trkpt>
      <trkpt lat="44.457957660779357" lon="11.238412940874696">
        <ele>294</ele>
        <time>2005-01-22T08:39:07Z</time>
      </trkpt>
      <trkpt lat="44.457807540893555" lon="11.238305568695068">
        <ele>290</ele>
        <time>2005-01-22T08:39:09Z</time>
      </trkpt>
      <trkpt lat="44.457743167877197" lon="11.238262737169862">
        <ele>287</ele>
        <time>2005-01-22T08:39:10Z</time>
      </trkpt>
      <trkpt lat="44.457571506500244" lon="11.238219738006592">
        <ele>282</ele>
        <time>2005-01-22T08:39:13Z</time>
      </trkpt>
      <trkpt lat="44.457464218139648" lon="11.238176822662354">
        <ele>278</ele>
        <time>2005-01-22T08:39:16Z</time>
      </trkpt>
      <trkpt lat="44.457399761304259" lon="11.238155364990234">
        <ele>277</ele>
        <time>2005-01-22T08:39:18Z</time>
      </trkpt>
      <trkpt lat="44.457378387451172" lon="11.238048076629639">
        <ele>276</ele>
        <time>2005-01-22T08:39:23Z</time>
      </trkpt>
      <trkpt lat="44.457314014434814" lon="11.237661838531494">
        <ele>280</ele>
        <time>2005-01-22T08:39:37Z</time>
      </trkpt>
      <trkpt lat="44.457292640581727" lon="11.237425804138184">
        <ele>282</ele>
        <time>2005-01-22T08:39:45Z</time>
      </trkpt>
      <trkpt lat="44.457271099090576" lon="11.237039566040039">
        <ele>285</ele>
        <time>2005-01-22T08:40:05Z</time>
      </trkpt>
      <trkpt lat="44.457399761304259" lon="11.236739158630371">
        <ele>286</ele>
        <time>2005-01-22T08:40:23Z</time>
      </trkpt>
      <trkpt lat="44.457571506500244" lon="11.236481666564941">
        <ele>289</ele>
        <time>2005-01-22T08:40:37Z</time>
      </trkpt>
      <trkpt lat="44.457721710205078" lon="11.236288463696837">
        <ele>293</ele>
        <time>2005-01-22T08:40:48Z</time>
      </trkpt>
      <trkpt lat="44.45791482925415" lon="11.235966682434082">
        <ele>295</ele>
        <time>2005-01-22T08:41:04Z</time>
      </trkpt>
      <trkpt lat="44.457786083221436" lon="11.235601902008057">
        <ele>297</ele>
        <time>2005-01-22T08:41:20Z</time>
      </trkpt>
      <trkpt lat="44.457571506500244" lon="11.235151290893555">
        <ele>298</ele>
        <time>2005-01-22T08:41:41Z</time>
      </trkpt>
      <trkpt lat="44.45742130279541" lon="11.234636306762695">
        <ele>297</ele>
        <time>2005-01-22T08:42:01Z</time>
      </trkpt>
      <trkpt lat="44.457206726074219" lon="11.234550476074219">
        <ele>296</ele>
        <time>2005-01-22T08:42:16Z</time>
      </trkpt>
      <trkpt lat="44.457099437713623" lon="11.234486103057861">
        <ele>296</ele>
        <time>2005-01-22T08:42:39Z</time>
      </trkpt>
      <trkpt lat="44.457099437713623" lon="11.234486103057861">
        <ele>295</ele>
        <time>2005-01-22T08:42:55Z</time>
      </trkpt>
      <trkpt lat="44.45692777633667" lon="11.234378814697266">
        <ele>295</ele>
        <time>2005-01-22T08:43:14Z</time>
      </trkpt>
      <trkpt lat="44.456648826599121" lon="11.23427152633667">
        <ele>295</ele>
        <time>2005-01-22T08:43:29Z</time>
      </trkpt>
      <trkpt lat="44.456241130828857" lon="11.234314441680908">
        <ele>294</ele>
        <time>2005-01-22T08:43:48Z</time>
      </trkpt>
      <trkpt lat="44.455811977386475" lon="11.234400272369385">
        <ele>294</ele>
        <time>2005-01-22T08:44:08Z</time>
      </trkpt>
      <trkpt lat="44.455575859174132" lon="11.234207237139344">
        <ele>293</ele>
        <time>2005-01-22T08:44:25Z</time>
      </trkpt>
      <trkpt lat="44.455597400665283" lon="11.234142780303955">
        <ele>294</ele>
        <time>2005-01-22T08:44:36Z</time>
      </trkpt>
      <trkpt lat="44.45568323135376" lon="11.234099864959717">
        <ele>296</ele>
        <time>2005-01-22T08:44:44Z</time>
      </trkpt>
      <trkpt lat="44.455726062878966" lon="11.234078407287598">
        <ele>297</ele>
        <time>2005-01-22T08:44:48Z</time>
      </trkpt>
      <trkpt lat="44.455854892730713" lon="11.233971118927002">
        <ele>300</ele>
        <time>2005-01-22T08:45:01Z</time>
      </trkpt>
      <trkpt lat="44.455940723419189" lon="11.233885288238525">
        <ele>303</ele>
        <time>2005-01-22T08:45:11Z</time>
      </trkpt>
      <trkpt lat="44.456112384796143" lon="11.233756458386779">
        <ele>306</ele>
        <time>2005-01-22T08:45:27Z</time>
      </trkpt>
      <trkpt lat="44.456262588500977" lon="11.233627796173096">
        <ele>309</ele>
        <time>2005-01-22T08:45:41Z</time>
      </trkpt>
      <trkpt lat="44.456412792205811" lon="11.233563423156738">
        <ele>312</ele>
        <time>2005-01-22T08:45:55Z</time>
      </trkpt>
      <trkpt lat="44.456648826599121" lon="11.233649337664247">
        <ele>315</ele>
        <time>2005-01-22T08:46:15Z</time>
      </trkpt>
      <trkpt lat="44.456884860992432" lon="11.233584880828857">
        <ele>318</ele>
        <time>2005-01-22T08:46:34Z</time>
      </trkpt>
      <trkpt lat="44.457077980041504" lon="11.233499133959413">
        <ele>321</ele>
        <time>2005-01-22T08:46:50Z</time>
      </trkpt>
      <trkpt lat="44.457292640581727" lon="11.233434677124023">
        <ele>325</ele>
        <time>2005-01-22T08:47:06Z</time>
      </trkpt>
      <trkpt lat="44.457292640581727" lon="11.233434677124023">
        <ele>325</ele>
        <time>2005-01-22T08:47:07Z</time>
      </trkpt>
      <trkpt lat="44.457464218139648" lon="11.233370304107666">
        <ele>328</ele>
        <time>2005-01-22T08:47:20Z</time>
      </trkpt>
      <trkpt lat="44.457635879516602" lon="11.233284473419189">
        <ele>331</ele>
        <time>2005-01-22T08:47:31Z</time>
      </trkpt>
      <trkpt lat="44.457764625549316" lon="11.233220100402832">
        <ele>335</ele>
        <time>2005-01-22T08:47:40Z</time>
      </trkpt>
      <trkpt lat="44.45793628692627" lon="11.233198558911681">
        <ele>338</ele>
        <time>2005-01-22T08:47:52Z</time>
      </trkpt>
      <trkpt lat="44.45817232131958" lon="11.233241641893983">
        <ele>339</ele>
        <time>2005-01-22T08:48:09Z</time>
      </trkpt>
      <trkpt lat="44.458472728729248" lon="11.233305931091309">
        <ele>341</ele>
        <time>2005-01-22T08:48:31Z</time>
      </trkpt>
      <trkpt lat="44.458687305450439" lon="11.233434677124023">
        <ele>344</ele>
        <time>2005-01-22T08:48:49Z</time>
      </trkpt>
      <trkpt lat="44.45892333984375" lon="11.233606338500977">
        <ele>346</ele>
        <time>2005-01-22T08:49:07Z</time>
      </trkpt>
      <trkpt lat="44.458987712860107" lon="11.233627796173096">
        <ele>347</ele>
        <time>2005-01-22T08:49:12Z</time>
      </trkpt>
      <trkpt lat="44.45892333984375" lon="11.233499133959413">
        <ele>347</ele>
        <time>2005-01-22T08:49:24Z</time>
      </trkpt>
      <trkpt lat="44.45892333984375" lon="11.233477592468262">
        <ele>347</ele>
        <time>2005-01-22T08:49:25Z</time>
      </trkpt>
      <trkpt lat="44.458816135302186" lon="11.233327388763428">
        <ele>350</ele>
        <time>2005-01-22T08:49:39Z</time>
      </trkpt>
      <trkpt lat="44.458687305450439" lon="11.233134269714355">
        <ele>353</ele>
        <time>2005-01-22T08:49:52Z</time>
      </trkpt>
      <trkpt lat="44.458601474761963" lon="11.232941234484315">
        <ele>356</ele>
        <time>2005-01-22T08:50:03Z</time>
      </trkpt>
      <trkpt lat="44.458558559417725" lon="11.232619285583496">
        <ele>360</ele>
        <time>2005-01-22T08:50:21Z</time>
      </trkpt>
      <trkpt lat="44.458558559417725" lon="11.232554912567139">
        <ele>360</ele>
        <time>2005-01-22T08:50:24Z</time>
      </trkpt>
      <trkpt lat="44.458665763959289" lon="11.23223296366632">
        <ele>362</ele>
        <time>2005-01-22T08:50:42Z</time>
      </trkpt>
      <trkpt lat="44.458751678466797" lon="11.23178243637085">
        <ele>364</ele>
        <time>2005-01-22T08:51:04Z</time>
      </trkpt>
      <trkpt lat="44.458794593811035" lon="11.231589317321777">
        <ele>365</ele>
        <time>2005-01-22T08:51:12Z</time>
      </trkpt>
      <trkpt lat="44.458837509155273" lon="11.231203079223633">
        <ele>367</ele>
        <time>2005-01-22T08:51:30Z</time>
      </trkpt>
      <trkpt lat="44.458837509155273" lon="11.23103141784668">
        <ele>369</ele>
        <time>2005-01-22T08:51:38Z</time>
      </trkpt>
      <trkpt lat="44.458794593811035" lon="11.230645179748535">
        <ele>372</ele>
        <time>2005-01-22T08:51:58Z</time>
      </trkpt>
      <trkpt lat="44.458773136138916" lon="11.23028039932251">
        <ele>375</ele>
        <time>2005-01-22T08:52:17Z</time>
      </trkpt>
      <trkpt lat="44.458751678466797" lon="11.229894161224365">
        <ele>377</ele>
        <time>2005-01-22T08:52:36Z</time>
      </trkpt>
      <trkpt lat="44.458751678466797" lon="11.229829788208008">
        <ele>379</ele>
        <time>2005-01-22T08:52:39Z</time>
      </trkpt>
      <trkpt lat="44.458751678466797" lon="11.22976541519165">
        <ele>379</ele>
        <time>2005-01-22T08:52:42Z</time>
      </trkpt>
      <trkpt lat="44.458773136138916" lon="11.229700958356261">
        <ele>380</ele>
        <time>2005-01-22T08:52:46Z</time>
      </trkpt>
      <trkpt lat="44.458901882171631" lon="11.229357719421387">
        <ele>382</ele>
        <time>2005-01-22T08:53:05Z</time>
      </trkpt>
      <trkpt lat="44.459095001220703" lon="11.229078769683838">
        <ele>383</ele>
        <time>2005-01-22T08:53:21Z</time>
      </trkpt>
      <trkpt lat="44.459331035614014" lon="11.228671073913574">
        <ele>383</ele>
        <time>2005-01-22T08:53:41Z</time>
      </trkpt>
      <trkpt lat="44.459395408630371" lon="11.228220462799072">
        <ele>386</ele>
        <time>2005-01-22T08:53:59Z</time>
      </trkpt>
      <trkpt lat="44.459288120269775" lon="11.227662563323975">
        <ele>388</ele>
        <time>2005-01-22T08:54:22Z</time>
      </trkpt>
      <trkpt lat="44.459159374237061" lon="11.227362239733338">
        <ele>390</ele>
        <time>2005-01-22T08:54:39Z</time>
      </trkpt>
      <trkpt lat="44.459009170532227" lon="11.227297782897949">
        <ele>394</ele>
        <time>2005-01-22T08:54:50Z</time>
      </trkpt>
      <trkpt lat="44.458816135302186" lon="11.227254867553711">
        <ele>397</ele>
        <time>2005-01-22T08:55:02Z</time>
      </trkpt>
      <trkpt lat="44.458816135302186" lon="11.227254867553711">
        <ele>398</ele>
        <time>2005-01-22T08:55:03Z</time>
      </trkpt>
      <trkpt lat="44.458601474761963" lon="11.227126121520996">
        <ele>401</ele>
        <time>2005-01-22T08:55:17Z</time>
      </trkpt>
      <trkpt lat="44.458451271057129" lon="11.226933002471924">
        <ele>404</ele>
        <time>2005-01-22T08:55:30Z</time>
      </trkpt>
      <trkpt lat="44.45842981338501" lon="11.226933002471924">
        <ele>404</ele>
        <time>2005-01-22T08:55:31Z</time>
      </trkpt>
      <trkpt lat="44.458343982696533" lon="11.226718425750732">
        <ele>407</ele>
        <time>2005-01-22T08:55:43Z</time>
      </trkpt>
      <trkpt lat="44.45817232131958" lon="11.226332187652588">
        <ele>408</ele>
        <time>2005-01-22T08:56:03Z</time>
      </trkpt>
      <trkpt lat="44.458000659942627" lon="11.226053237915039">
        <ele>410</ele>
        <time>2005-01-22T08:56:18Z</time>
      </trkpt>
      <trkpt lat="44.457721710205078" lon="11.225924491882324">
        <ele>413</ele>
        <time>2005-01-22T08:56:35Z</time>
      </trkpt>
      <trkpt lat="44.457442760467529" lon="11.225838661193848">
        <ele>414</ele>
        <time>2005-01-22T08:56:52Z</time>
      </trkpt>
      <trkpt lat="44.45742130279541" lon="11.225817203521729">
        <ele>415</ele>
        <time>2005-01-22T09:01:08Z</time>
      </trkpt>
      <trkpt lat="44.457464218139648" lon="11.225688541308045">
        <ele>414</ele>
        <time>2005-01-22T09:01:14Z</time>
      </trkpt>
      <trkpt lat="44.457549965009093" lon="11.22502326965332">
        <ele>413</ele>
        <time>2005-01-22T09:01:31Z</time>
      </trkpt>
      <trkpt lat="44.457314014434814" lon="11.224186420440674">
        <ele>413</ele>
        <time>2005-01-22T09:01:50Z</time>
      </trkpt>
      <trkpt lat="44.456691658124328" lon="11.2235426902771">
        <ele>414</ele>
        <time>2005-01-22T09:02:11Z</time>
      </trkpt>
      <trkpt lat="44.456477165222168" lon="11.223478317260742">
        <ele>414</ele>
        <time>2005-01-22T09:02:20Z</time>
      </trkpt>
      <trkpt lat="44.456455707550049" lon="11.223392486572266">
        <ele>414</ele>
        <time>2005-01-22T09:02:30Z</time>
      </trkpt>
      <trkpt lat="44.456412792205811" lon="11.223371028900146">
        <ele>415</ele>
        <time>2005-01-22T09:02:33Z</time>
      </trkpt>
      <trkpt lat="44.456326961517334" lon="11.223328113555908">
        <ele>415</ele>
        <time>2005-01-22T09:02:47Z</time>
      </trkpt>
      <trkpt lat="44.456262588500977" lon="11.223306739702821">
        <ele>416</ele>
        <time>2005-01-22T09:02:55Z</time>
      </trkpt>
      <trkpt lat="44.45613375864923" lon="11.223242282867432">
        <ele>416</ele>
        <time>2005-01-22T09:03:07Z</time>
      </trkpt>
      <trkpt lat="44.455962181091309" lon="11.223113536834717">
        <ele>416</ele>
        <time>2005-01-22T09:03:26Z</time>
      </trkpt>
      <trkpt lat="44.455940723419189" lon="11.223006164655089">
        <ele>416</ele>
        <time>2005-01-22T09:03:41Z</time>
      </trkpt>
      <trkpt lat="44.455897808074951" lon="11.222941875457764">
        <ele>416</ele>
        <time>2005-01-22T09:03:51Z</time>
      </trkpt>
      <trkpt lat="44.455833435058594" lon="11.222770214080811">
        <ele>413</ele>
        <time>2005-01-22T09:03:57Z</time>
      </trkpt>
      <trkpt lat="44.455876434221864" lon="11.222577095031738">
        <ele>410</ele>
        <time>2005-01-22T09:04:02Z</time>
      </trkpt>
      <trkpt lat="44.455876434221864" lon="11.222555637359619">
        <ele>409</ele>
        <time>2005-01-22T09:04:04Z</time>
      </trkpt>
      <trkpt lat="44.455790519714355" lon="11.222469806671143">
        <ele>405</ele>
        <time>2005-01-22T09:04:10Z</time>
      </trkpt>
      <trkpt lat="44.455769062042236" lon="11.222448265179992">
        <ele>404</ele>
        <time>2005-01-22T09:04:11Z</time>
      </trkpt>
      <trkpt lat="44.45568323135376" lon="11.222426891326904">
        <ele>401</ele>
        <time>2005-01-22T09:04:15Z</time>
      </trkpt>
      <trkpt lat="44.455554485321045" lon="11.222448265179992">
        <ele>398</ele>
        <time>2005-01-22T09:04:22Z</time>
      </trkpt>
      <trkpt lat="44.455554485321045" lon="11.222469806671143">
        <ele>398</ele>
        <time>2005-01-22T09:04:23Z</time>
      </trkpt>
      <trkpt lat="44.455511569976807" lon="11.222512722015381">
        <ele>394</ele>
        <time>2005-01-22T09:04:27Z</time>
      </trkpt>
      <trkpt lat="44.455490112304687" lon="11.2225341796875">
        <ele>394</ele>
        <time>2005-01-22T09:04:28Z</time>
      </trkpt>
      <trkpt lat="44.455382823944092" lon="11.22279167175293">
        <ele>391</ele>
        <time>2005-01-22T09:04:38Z</time>
      </trkpt>
      <trkpt lat="44.455382823944092" lon="11.22279167175293">
        <ele>391</ele>
        <time>2005-01-22T09:04:39Z</time>
      </trkpt>
      <trkpt lat="44.455318534746766" lon="11.222898960113525">
        <ele>389</ele>
        <time>2005-01-22T09:04:52Z</time>
      </trkpt>
      <trkpt lat="44.455254077911377" lon="11.222984790802002">
        <ele>386</ele>
        <time>2005-01-22T09:05:04Z</time>
      </trkpt>
      <trkpt lat="44.455254077911377" lon="11.222963333129883">
        <ele>387</ele>
        <time>2005-01-22T09:05:14Z</time>
      </trkpt>
      <trkpt lat="44.455232620239258" lon="11.222941875457764">
        <ele>387</ele>
        <time>2005-01-22T09:05:30Z</time>
      </trkpt>
      <trkpt lat="44.45518970489502" lon="11.222941875457764">
        <ele>386</ele>
        <time>2005-01-22T09:05:51Z</time>
      </trkpt>
      <trkpt lat="44.45518970489502" lon="11.222941875457764">
        <ele>387</ele>
        <time>2005-01-22T09:06:04Z</time>
      </trkpt>
      <trkpt lat="44.455318534746766" lon="11.222426891326904">
        <ele>386</ele>
        <time>2005-01-22T09:06:22Z</time>
      </trkpt>
      <trkpt lat="44.455318534746766" lon="11.222126483917236">
        <ele>384</ele>
        <time>2005-01-22T09:06:30Z</time>
      </trkpt>
      <trkpt lat="44.455254077911377" lon="11.221804618835449">
        <ele>381</ele>
        <time>2005-01-22T09:06:37Z</time>
      </trkpt>
      <trkpt lat="44.455254077911377" lon="11.221697330474854">
        <ele>379</ele>
        <time>2005-01-22T09:06:40Z</time>
      </trkpt>
      <trkpt lat="44.455211162567139" lon="11.2215256690979">
        <ele>379</ele>
        <time>2005-01-22T09:06:46Z</time>
      </trkpt>
      <trkpt lat="44.455168163403869" lon="11.221461296081543">
        <ele>377</ele>
        <time>2005-01-22T09:06:50Z</time>
      </trkpt>
      <trkpt lat="44.454867839813232" lon="11.221182262524962">
        <ele>376</ele>
        <time>2005-01-22T09:07:05Z</time>
      </trkpt>
      <trkpt lat="44.45467472076416" lon="11.22107514180243">
        <ele>373</ele>
        <time>2005-01-22T09:07:11Z</time>
      </trkpt>
      <trkpt lat="44.454567432403564" lon="11.220989227294922">
        <ele>371</ele>
        <time>2005-01-22T09:07:25Z</time>
      </trkpt>
      <trkpt lat="44.454545974731445" lon="11.220967769622803">
        <ele>370</ele>
        <time>2005-01-22T09:07:37Z</time>
      </trkpt>
      <trkpt lat="44.454567432403564" lon="11.220946311950684">
        <ele>371</ele>
        <time>2005-01-22T09:07:43Z</time>
      </trkpt>
      <trkpt lat="44.454503059387207" lon="11.220817565917969">
        <ele>374</ele>
        <time>2005-01-22T09:07:59Z</time>
      </trkpt>
      <trkpt lat="44.45443868637085" lon="11.22079610824585">
        <ele>376</ele>
        <time>2005-01-22T09:08:12Z</time>
      </trkpt>
      <trkpt lat="44.454331398010254" lon="11.220753192901611">
        <ele>375</ele>
        <time>2005-01-22T09:08:18Z</time>
      </trkpt>
      <trkpt lat="44.454288482666016" lon="11.220731735229492">
        <ele>376</ele>
        <time>2005-01-22T09:08:27Z</time>
      </trkpt>
      <trkpt lat="44.45418119430542" lon="11.220667362213135">
        <ele>373</ele>
        <time>2005-01-22T09:08:34Z</time>
      </trkpt>
      <trkpt lat="44.454030990600586" lon="11.220602989196777">
        <ele>368</ele>
        <time>2005-01-22T09:08:43Z</time>
      </trkpt>
      <trkpt lat="44.454009532928467" lon="11.220602989196777">
        <ele>368</ele>
        <time>2005-01-22T09:08:44Z</time>
      </trkpt>
      <trkpt lat="44.453966617584229" lon="11.22053861618042">
        <ele>367</ele>
        <time>2005-01-22T09:08:46Z</time>
      </trkpt>
      <trkpt lat="44.453730583190918" lon="11.220345497131348">
        <ele>364</ele>
        <time>2005-01-22T09:08:55Z</time>
      </trkpt>
      <trkpt lat="44.453623294830322" lon="11.22028112411499">
        <ele>361</ele>
        <time>2005-01-22T09:09:01Z</time>
      </trkpt>
      <trkpt lat="44.453451633453369" lon="11.22028112411499">
        <ele>358</ele>
        <time>2005-01-22T09:09:14Z</time>
      </trkpt>
      <trkpt lat="44.453451633453369" lon="11.22028112411499">
        <ele>357</ele>
        <time>2005-01-22T09:09:16Z</time>
      </trkpt>
      <trkpt lat="44.453408718109131" lon="11.220259666442871">
        <ele>353</ele>
        <time>2005-01-22T09:09:19Z</time>
      </trkpt>
      <trkpt lat="44.453408718109131" lon="11.220259666442871">
        <ele>353</ele>
        <time>2005-01-22T09:09:20Z</time>
      </trkpt>
      <trkpt lat="44.453387260437012" lon="11.22028112411499">
        <ele>354</ele>
        <time>2005-01-22T09:09:35Z</time>
      </trkpt>
      <trkpt lat="44.453365802764893" lon="11.220302581787109">
        <ele>355</ele>
        <time>2005-01-22T09:09:38Z</time>
      </trkpt>
      <trkpt lat="44.453301429748535" lon="11.220367038622499">
        <ele>356</ele>
        <time>2005-01-22T09:09:46Z</time>
      </trkpt>
      <trkpt lat="44.453258514404297" lon="11.220388412475586">
        <ele>357</ele>
        <time>2005-01-22T09:10:02Z</time>
      </trkpt>
      <trkpt lat="44.453237140551209" lon="11.220409870147705">
        <ele>357</ele>
        <time>2005-01-22T09:10:19Z</time>
      </trkpt>
      <trkpt lat="44.453237140551209" lon="11.220388412475586">
        <ele>358</ele>
        <time>2005-01-22T09:10:32Z</time>
      </trkpt>
      <trkpt lat="44.453151226043701" lon="11.220409870147705">
        <ele>358</ele>
        <time>2005-01-22T09:10:38Z</time>
      </trkpt>
      <trkpt lat="44.453001022338867" lon="11.220367038622499">
        <ele>358</ele>
        <time>2005-01-22T09:10:52Z</time>
      </trkpt>
      <trkpt lat="44.452764987945557" lon="11.220324039459229">
        <ele>359</ele>
        <time>2005-01-22T09:11:07Z</time>
      </trkpt>
      <trkpt lat="44.452314376831055" lon="11.220002174377441">
        <ele>356</ele>
        <time>2005-01-22T09:11:23Z</time>
      </trkpt>
      <trkpt lat="44.45192813873291" lon="11.219680309295654">
        <ele>355</ele>
        <time>2005-01-22T09:11:35Z</time>
      </trkpt>
      <trkpt lat="44.451477527618408" lon="11.219379901885986">
        <ele>357</ele>
        <time>2005-01-22T09:11:53Z</time>
      </trkpt>
      <trkpt lat="44.450790882110596" lon="11.219058036804199">
        <ele>359</ele>
        <time>2005-01-22T09:12:18Z</time>
      </trkpt>
      <trkpt lat="44.450104236602783" lon="11.218585968017578">
        <ele>357</ele>
        <time>2005-01-22T09:12:39Z</time>
      </trkpt>
      <trkpt lat="44.449868202209473" lon="11.218092441558838">
        <ele>357</ele>
        <time>2005-01-22T09:12:49Z</time>
      </trkpt>
      <trkpt lat="44.44969654083252" lon="11.217813491821289">
        <ele>355</ele>
        <time>2005-01-22T09:12:54Z</time>
      </trkpt>
      <trkpt lat="44.449503421783447" lon="11.217684661969543">
        <ele>353</ele>
        <time>2005-01-22T09:12:57Z</time>
      </trkpt>
      <trkpt lat="44.449353218078613" lon="11.217641830444336">
        <ele>353</ele>
        <time>2005-01-22T09:12:59Z</time>
      </trkpt>
      <trkpt lat="44.448323165997863" lon="11.217362880706787">
        <ele>350</ele>
        <time>2005-01-22T09:13:14Z</time>
      </trkpt>
      <trkpt lat="44.447872638702393" lon="11.217105388641357">
        <ele>347</ele>
        <time>2005-01-22T09:13:21Z</time>
      </trkpt>
      <trkpt lat="44.447722434997559" lon="11.217041015625">
        <ele>345</ele>
        <time>2005-01-22T09:13:23Z</time>
      </trkpt>
      <trkpt lat="44.44694995880127" lon="11.216504573822021">
        <ele>342</ele>
        <time>2005-01-22T09:13:36Z</time>
      </trkpt>
      <trkpt lat="44.44643497467041" lon="11.21601096354425">
        <ele>344</ele>
        <time>2005-01-22T09:13:50Z</time>
      </trkpt>
      <trkpt lat="44.445984363555908" lon="11.215753639116883">
        <ele>344</ele>
        <time>2005-01-22T09:14:06Z</time>
      </trkpt>
      <trkpt lat="44.445405006408691" lon="11.215367317199707">
        <ele>345</ele>
        <time>2005-01-22T09:14:24Z</time>
      </trkpt>
      <trkpt lat="44.44497593678534" lon="11.214723587036133">
        <ele>343</ele>
        <time>2005-01-22T09:14:40Z</time>
      </trkpt>
      <trkpt lat="44.444911479949951" lon="11.214616298675537">
        <ele>341</ele>
        <time>2005-01-22T09:14:42Z</time>
      </trkpt>
      <trkpt lat="44.444782733917236" lon="11.214444637298584">
        <ele>341</ele>
        <time>2005-01-22T09:14:45Z</time>
      </trkpt>
      <trkpt lat="44.444460868835449" lon="11.214187061414123">
        <ele>337</ele>
        <time>2005-01-22T09:14:50Z</time>
      </trkpt>
      <trkpt lat="44.443902969360352" lon="11.21380090713501">
        <ele>333</ele>
        <time>2005-01-22T09:14:58Z</time>
      </trkpt>
      <trkpt lat="44.443838596343994" lon="11.213715076446533">
        <ele>333</ele>
        <time>2005-01-22T09:14:59Z</time>
      </trkpt>
      <trkpt lat="44.443731307983398" lon="11.213500499725342">
        <ele>330</ele>
        <time>2005-01-22T09:15:01Z</time>
      </trkpt>
      <trkpt lat="44.443624019622803" lon="11.213157176971436">
        <ele>328</ele>
        <time>2005-01-22T09:15:04Z</time>
      </trkpt>
      <trkpt lat="44.44340935908258" lon="11.21251336298883">
        <ele>325</ele>
        <time>2005-01-22T09:15:10Z</time>
      </trkpt>
      <trkpt lat="44.443366527557373" lon="11.212170124053955">
        <ele>324</ele>
        <time>2005-01-22T09:15:13Z</time>
      </trkpt>
      <trkpt lat="44.443387985229492" lon="11.21204137802124">
        <ele>322</ele>
        <time>2005-01-22T09:15:14Z</time>
      </trkpt>
      <trkpt lat="44.443495273590088" lon="11.211354732513428">
        <ele>320</ele>
        <time>2005-01-22T09:15:20Z</time>
      </trkpt>
      <trkpt lat="44.443731307983398" lon="11.210517883300781">
        <ele>318</ele>
        <time>2005-01-22T09:15:30Z</time>
      </trkpt>
      <trkpt lat="44.443795680999756" lon="11.210324764251709">
        <ele>317</ele>
        <time>2005-01-22T09:15:32Z</time>
      </trkpt>
      <trkpt lat="44.443902969360352" lon="11.210153102874756">
        <ele>315</ele>
        <time>2005-01-22T09:15:34Z</time>
      </trkpt>
      <trkpt lat="44.444074630737305" lon="11.209723865613341">
        <ele>314</ele>
        <time>2005-01-22T09:15:38Z</time>
      </trkpt>
      <trkpt lat="44.444096088409424" lon="11.209144592285156">
        <ele>309</ele>
        <time>2005-01-22T09:15:43Z</time>
      </trkpt>
      <trkpt lat="44.444096088409424" lon="11.209037303924561">
        <ele>309</ele>
        <time>2005-01-22T09:15:44Z</time>
      </trkpt>
      <trkpt lat="44.444224834442139" lon="11.20880126953125">
        <ele>309</ele>
        <time>2005-01-22T09:15:47Z</time>
      </trkpt>
      <trkpt lat="44.444632530212402" lon="11.208500862121582">
        <ele>306</ele>
        <time>2005-01-22T09:15:54Z</time>
      </trkpt>
      <trkpt lat="44.444847106933594" lon="11.208307659253478">
        <ele>301</ele>
        <time>2005-01-22T09:15:57Z</time>
      </trkpt>
      <trkpt lat="44.445061683654785" lon="11.208114624023438">
        <ele>297</ele>
        <time>2005-01-22T09:16:00Z</time>
      </trkpt>
      <trkpt lat="44.445211887359619" lon="11.208007335662842">
        <ele>294</ele>
        <time>2005-01-22T09:16:02Z</time>
      </trkpt>
      <trkpt lat="44.445726871490479" lon="11.207685470581055">
        <ele>294</ele>
        <time>2005-01-22T09:16:09Z</time>
      </trkpt>
      <trkpt lat="44.446005821228027" lon="11.207492435351014">
        <ele>297</ele>
        <time>2005-01-22T09:16:15Z</time>
      </trkpt>
      <trkpt lat="44.446370601654053" lon="11.207277774810791">
        <ele>296</ele>
        <time>2005-01-22T09:16:28Z</time>
      </trkpt>
      <trkpt lat="44.446392059326172" lon="11.207277774810791">
        <ele>295</ele>
        <time>2005-01-22T09:16:37Z</time>
      </trkpt>
      <trkpt lat="44.446392059326172" lon="11.207277774810791">
        <ele>295</ele>
        <time>2005-01-22T09:16:38Z</time>
      </trkpt>
      <trkpt lat="44.446477890014648" lon="11.207149028778076">
        <ele>293</ele>
        <time>2005-01-22T09:16:47Z</time>
      </trkpt>
      <trkpt lat="44.446520805358887" lon="11.207106113433838">
        <ele>293</ele>
        <time>2005-01-22T09:16:48Z</time>
      </trkpt>
      <trkpt lat="44.446821212768555" lon="11.206848621368408">
        <ele>291</ele>
        <time>2005-01-22T09:16:58Z</time>
      </trkpt>
      <trkpt lat="44.446885585784912" lon="11.206870079040527">
        <ele>292</ele>
        <time>2005-01-22T09:17:10Z</time>
      </trkpt>
      <trkpt lat="44.447014331817627" lon="11.206891536712646">
        <ele>292</ele>
        <time>2005-01-22T09:17:23Z</time>
      </trkpt>
      <trkpt lat="44.447529315948486" lon="11.206698417663574">
        <ele>294</ele>
        <time>2005-01-22T09:17:42Z</time>
      </trkpt>
      <trkpt lat="44.447572231292725" lon="11.206676959991455">
        <ele>293</ele>
        <time>2005-01-22T09:17:43Z</time>
      </trkpt>
      <trkpt lat="44.447765434160829" lon="11.206398010253906">
        <ele>294</ele>
        <time>2005-01-22T09:17:54Z</time>
      </trkpt>
      <trkpt lat="44.447765434160829" lon="11.206333637237549">
        <ele>293</ele>
        <time>2005-01-22T09:17:59Z</time>
      </trkpt>
      <trkpt lat="44.447765434160829" lon="11.206204891204834">
        <ele>295</ele>
        <time>2005-01-22T09:18:09Z</time>
      </trkpt>
      <trkpt lat="44.447765434160829" lon="11.20579719543457">
        <ele>295</ele>
        <time>2005-01-22T09:18:24Z</time>
      </trkpt>
      <trkpt lat="44.447808265686035" lon="11.205604076385498">
        <ele>296</ele>
        <time>2005-01-22T09:18:40Z</time>
      </trkpt>
      <trkpt lat="44.447851181030273" lon="11.20551816187799">
        <ele>296</ele>
        <time>2005-01-22T09:18:54Z</time>
      </trkpt>
      <trkpt lat="44.448065841570497" lon="11.205217838287354">
        <ele>297</ele>
        <time>2005-01-22T09:19:06Z</time>
      </trkpt>
      <trkpt lat="44.448280334472656" lon="11.204960262402892">
        <ele>297</ele>
        <time>2005-01-22T09:19:22Z</time>
      </trkpt>
      <trkpt lat="44.448387622833252" lon="11.204831600189209">
        <ele>298</ele>
        <time>2005-01-22T09:19:41Z</time>
      </trkpt>
      <trkpt lat="44.448516368865967" lon="11.204702937975526">
        <ele>302</ele>
        <time>2005-01-22T09:19:53Z</time>
      </trkpt>
      <trkpt lat="44.448580741882324" lon="11.204659938812256">
        <ele>304</ele>
        <time>2005-01-22T09:20:07Z</time>
      </trkpt>
      <trkpt lat="44.448645114898682" lon="11.204638481140137">
        <ele>307</ele>
        <time>2005-01-22T09:20:22Z</time>
      </trkpt>
      <trkpt lat="44.448709487915039" lon="11.204595565795898">
        <ele>310</ele>
        <time>2005-01-22T09:20:35Z</time>
      </trkpt>
      <trkpt lat="44.448838233947754" lon="11.204509735107422">
        <ele>313</ele>
        <time>2005-01-22T09:20:53Z</time>
      </trkpt>
      <trkpt lat="44.448838233947754" lon="11.204488277435303">
        <ele>313</ele>
        <time>2005-01-22T09:21:03Z</time>
      </trkpt>
      <trkpt lat="44.44894552230835" lon="11.204380989074707">
        <ele>309</ele>
        <time>2005-01-22T09:21:33Z</time>
      </trkpt>
      <trkpt lat="44.449009895324707" lon="11.20431661605835">
        <ele>304</ele>
        <time>2005-01-22T09:21:37Z</time>
      </trkpt>
      <trkpt lat="44.449052810668945" lon="11.20425215922296">
        <ele>300</ele>
        <time>2005-01-22T09:21:40Z</time>
      </trkpt>
      <trkpt lat="44.449138641357422" lon="11.204145038500428">
        <ele>296</ele>
        <time>2005-01-22T09:21:43Z</time>
      </trkpt>
      <trkpt lat="44.449181640520692" lon="11.20405912399292">
        <ele>293</ele>
        <time>2005-01-22T09:21:45Z</time>
      </trkpt>
      <trkpt lat="44.449267387390137" lon="11.203930377960205">
        <ele>289</ele>
        <time>2005-01-22T09:21:48Z</time>
      </trkpt>
      <trkpt lat="44.449310302734375" lon="11.203866004943848">
        <ele>288</ele>
        <time>2005-01-22T09:21:50Z</time>
      </trkpt>
      <trkpt lat="44.449460506439209" lon="11.203651428222656">
        <ele>284</ele>
        <time>2005-01-22T09:21:54Z</time>
      </trkpt>
      <trkpt lat="44.449567794799805" lon="11.203544139862061">
        <ele>280</ele>
        <time>2005-01-22T09:21:56Z</time>
      </trkpt>
      <trkpt lat="44.449610710144043" lon="11.203501224517822">
        <ele>280</ele>
        <time>2005-01-22T09:21:57Z</time>
      </trkpt>
      <trkpt lat="44.44973953999579" lon="11.203393936157227">
        <ele>278</ele>
        <time>2005-01-22T09:22:01Z</time>
      </trkpt>
      <trkpt lat="44.449868202209473" lon="11.203329563140869">
        <ele>276</ele>
        <time>2005-01-22T09:22:10Z</time>
      </trkpt>
      <trkpt lat="44.450018405914307" lon="11.203200817108154">
        <ele>277</ele>
        <time>2005-01-22T09:22:18Z</time>
      </trkpt>
      <trkpt lat="44.450018405914307" lon="11.203179359436035">
        <ele>277</ele>
        <time>2005-01-22T09:22:22Z</time>
      </trkpt>
      <trkpt lat="44.450018405914307" lon="11.20305061340332">
        <ele>274</ele>
        <time>2005-01-22T09:22:27Z</time>
      </trkpt>
      <trkpt lat="44.450018405914307" lon="11.203029239550233">
        <ele>274</ele>
        <time>2005-01-22T09:22:28Z</time>
      </trkpt>
      <trkpt lat="44.450018405914307" lon="11.202986240386963">
        <ele>273</ele>
        <time>2005-01-22T09:22:29Z</time>
      </trkpt>
      <trkpt lat="44.450039863586426" lon="11.202793121337891">
        <ele>272</ele>
        <time>2005-01-22T09:22:33Z</time>
      </trkpt>
      <trkpt lat="44.450061321258545" lon="11.202728664502501">
        <ele>271</ele>
        <time>2005-01-22T09:22:44Z</time>
      </trkpt>
      <trkpt lat="44.450061321258545" lon="11.202707290649414">
        <ele>271</ele>
        <time>2005-01-22T09:22:45Z</time>
      </trkpt>
      <trkpt lat="44.450082778930664" lon="11.202642917633057">
        <ele>272</ele>
        <time>2005-01-22T09:23:01Z</time>
      </trkpt>
      <trkpt lat="44.450082778930664" lon="11.202535629272461">
        <ele>270</ele>
        <time>2005-01-22T09:23:07Z</time>
      </trkpt>
      <trkpt lat="44.45019006729126" lon="11.202449798583984">
        <ele>266</ele>
        <time>2005-01-22T09:23:13Z</time>
      </trkpt>
      <trkpt lat="44.450297439470887" lon="11.202385425567627">
        <ele>263</ele>
        <time>2005-01-22T09:23:16Z</time>
      </trkpt>
      <trkpt lat="44.450361728668213" lon="11.202342510223389">
        <ele>259</ele>
        <time>2005-01-22T09:23:18Z</time>
      </trkpt>
      <trkpt lat="44.450383186340332" lon="11.202321136370301">
        <ele>258</ele>
        <time>2005-01-22T09:23:19Z</time>
      </trkpt>
      <trkpt lat="44.450404560193419" lon="11.202192306518555">
        <ele>253</ele>
        <time>2005-01-22T09:23:23Z</time>
      </trkpt>
      <trkpt lat="44.450447559356689" lon="11.202085018157959">
        <ele>251</ele>
        <time>2005-01-22T09:23:26Z</time>
      </trkpt>
      <trkpt lat="44.450490474700928" lon="11.201977729797363">
        <ele>251</ele>
        <time>2005-01-22T09:23:28Z</time>
      </trkpt>
      <trkpt lat="44.450576305389404" lon="11.201698780059814">
        <ele>247</ele>
        <time>2005-01-22T09:23:33Z</time>
      </trkpt>
      <trkpt lat="44.450554763898253" lon="11.201591491699219">
        <ele>248</ele>
        <time>2005-01-22T09:26:35Z</time>
      </trkpt>
      <trkpt lat="44.450554763898253" lon="11.201505661010742">
        <ele>247</ele>
        <time>2005-01-22T09:26:38Z</time>
      </trkpt>
      <trkpt lat="44.450554763898253" lon="11.201398372650146">
        <ele>243</ele>
        <time>2005-01-22T09:26:42Z</time>
      </trkpt>
      <trkpt lat="44.450554763898253" lon="11.201312458142638">
        <ele>240</ele>
        <time>2005-01-22T09:26:45Z</time>
      </trkpt>
      <trkpt lat="44.450554763898253" lon="11.201248168945313">
        <ele>239</ele>
        <time>2005-01-22T09:26:47Z</time>
      </trkpt>
      <trkpt lat="44.450576305389404" lon="11.201162338256836">
        <ele>236</ele>
        <time>2005-01-22T09:26:50Z</time>
      </trkpt>
      <trkpt lat="44.450597763061523" lon="11.201076507568359">
        <ele>232</ele>
        <time>2005-01-22T09:26:53Z</time>
      </trkpt>
      <trkpt lat="44.450619220733643" lon="11.201012134552002">
        <ele>229</ele>
        <time>2005-01-22T09:26:56Z</time>
      </trkpt>
      <trkpt lat="44.450662136077881" lon="11.200926303863525">
        <ele>226</ele>
        <time>2005-01-22T09:26:59Z</time>
      </trkpt>
      <trkpt lat="44.45068359375" lon="11.200797641649842">
        <ele>220</ele>
        <time>2005-01-22T09:27:02Z</time>
      </trkpt>
      <trkpt lat="44.450662136077881" lon="11.200776100158691">
        <ele>219</ele>
        <time>2005-01-22T09:27:04Z</time>
      </trkpt>
      <trkpt lat="44.450619220733643" lon="11.200711727142334">
        <ele>217</ele>
        <time>2005-01-22T09:27:08Z</time>
      </trkpt>
      <trkpt lat="44.450619220733643" lon="11.200625896453857">
        <ele>215</ele>
        <time>2005-01-22T09:27:12Z</time>
      </trkpt>
      <trkpt lat="44.45068359375" lon="11.200582981109619">
        <ele>214</ele>
        <time>2005-01-22T09:27:15Z</time>
      </trkpt>
      <trkpt lat="44.450705135241151" lon="11.2005615234375">
        <ele>213</ele>
        <time>2005-01-22T09:27:17Z</time>
      </trkpt>
      <trkpt lat="44.450705135241151" lon="11.200540065765381">
        <ele>210</ele>
        <time>2005-01-22T09:27:26Z</time>
      </trkpt>
      <trkpt lat="44.450705135241151" lon="11.200540065765381">
        <ele>212</ele>
        <time>2005-01-22T09:27:39Z</time>
      </trkpt>
      <trkpt lat="44.450726509094238" lon="11.200518608093262">
        <ele>212</ele>
        <time>2005-01-22T09:27:44Z</time>
      </trkpt>
      <trkpt lat="44.450747966766357" lon="11.200454235076904">
        <ele>207</ele>
        <time>2005-01-22T09:27:48Z</time>
      </trkpt>
      <trkpt lat="44.450769424438477" lon="11.200432777404785">
        <ele>205</ele>
        <time>2005-01-22T09:27:53Z</time>
      </trkpt>
      <trkpt lat="44.450812339782715" lon="11.200325489044189">
        <ele>201</ele>
        <time>2005-01-22T09:27:58Z</time>
      </trkpt>
      <trkpt lat="44.450855338945985" lon="11.200325489044189">
        <ele>199</ele>
        <time>2005-01-22T09:28:02Z</time>
      </trkpt>
      <trkpt lat="44.451005458831787" lon="11.200368404388428">
        <ele>195</ele>
        <time>2005-01-22T09:28:08Z</time>
      </trkpt>
      <trkpt lat="44.451069831848145" lon="11.200368404388428">
        <ele>192</ele>
        <time>2005-01-22T09:28:11Z</time>
      </trkpt>
      <trkpt lat="44.45117712020874" lon="11.200325489044189">
        <ele>188</ele>
        <time>2005-01-22T09:28:15Z</time>
      </trkpt>
      <trkpt lat="44.451263034716249" lon="11.200282573699951">
        <ele>183</ele>
        <time>2005-01-22T09:28:19Z</time>
      </trkpt>
      <trkpt lat="44.451348781585693" lon="11.20030403137207">
        <ele>179</ele>
        <time>2005-01-22T09:28:24Z</time>
      </trkpt>
      <trkpt lat="44.451456069946289" lon="11.20030403137207">
        <ele>176</ele>
        <time>2005-01-22T09:28:29Z</time>
      </trkpt>
      <trkpt lat="44.451520359143615" lon="11.200325489044189">
        <ele>173</ele>
        <time>2005-01-22T09:28:32Z</time>
      </trkpt>
      <trkpt lat="44.451520359143615" lon="11.200325489044189">
        <ele>172</ele>
        <time>2005-01-22T09:28:33Z</time>
      </trkpt>
      <trkpt lat="44.451563358306885" lon="11.200325489044189">
        <ele>171</ele>
        <time>2005-01-22T09:28:35Z</time>
      </trkpt>
      <trkpt lat="44.451584815979004" lon="11.20030403137207">
        <ele>170</ele>
        <time>2005-01-22T09:28:37Z</time>
      </trkpt>
      <trkpt lat="44.451606273651123" lon="11.200282573699951">
        <ele>169</ele>
        <time>2005-01-22T09:28:38Z</time>
      </trkpt>
      <trkpt lat="44.4516921043396" lon="11.200325489044189">
        <ele>165</ele>
        <time>2005-01-22T09:28:41Z</time>
      </trkpt>
      <trkpt lat="44.451820934191346" lon="11.200346862897277">
        <ele>160</ele>
        <time>2005-01-22T09:28:45Z</time>
      </trkpt>
      <trkpt lat="44.451842308044434" lon="11.200325489044189">
        <ele>157</ele>
        <time>2005-01-22T09:28:49Z</time>
      </trkpt>
      <trkpt lat="44.451863765716553" lon="11.20030403137207">
        <ele>157</ele>
        <time>2005-01-22T09:29:08Z</time>
      </trkpt>
      <trkpt lat="44.451906681060791" lon="11.200153827667236">
        <ele>153</ele>
        <time>2005-01-22T09:29:12Z</time>
      </trkpt>
      <trkpt lat="44.451949596405029" lon="11.200046539306641">
        <ele>150</ele>
        <time>2005-01-22T09:29:14Z</time>
      </trkpt>
      <trkpt lat="44.45197113789618" lon="11.199939334765077">
        <ele>145</ele>
        <time>2005-01-22T09:29:16Z</time>
      </trkpt>
      <trkpt lat="44.451992511749268" lon="11.199853420257568">
        <ele>141</ele>
        <time>2005-01-22T09:29:18Z</time>
      </trkpt>
      <trkpt lat="44.452013969421387" lon="11.199746131896973">
        <ele>136</ele>
        <time>2005-01-22T09:29:20Z</time>
      </trkpt>
      <trkpt lat="44.452035427093506" lon="11.199617385864258">
        <ele>131</ele>
        <time>2005-01-22T09:29:22Z</time>
      </trkpt>
      <trkpt lat="44.452078258618712" lon="11.199467182159424">
        <ele>125</ele>
        <time>2005-01-22T09:29:24Z</time>
      </trkpt>
      <trkpt lat="44.452099800109863" lon="11.199359893798828">
        <ele>120</ele>
        <time>2005-01-22T09:29:26Z</time>
      </trkpt>
      <trkpt lat="44.452099800109863" lon="11.199274063110352">
        <ele>117</ele>
        <time>2005-01-22T09:29:28Z</time>
      </trkpt>
      <trkpt lat="44.451992511749268" lon="11.199123859405518">
        <ele>114</ele>
        <time>2005-01-22T09:29:33Z</time>
      </trkpt>
      <trkpt lat="44.451863765716553" lon="11.199016571044922">
        <ele>112</ele>
        <time>2005-01-22T09:29:39Z</time>
      </trkpt>
      <trkpt lat="44.451906681060791" lon="11.198844909667969">
        <ele>109</ele>
        <time>2005-01-22T09:29:44Z</time>
      </trkpt>
      <trkpt lat="44.45197113789618" lon="11.198480129241943">
        <ele>105</ele>
        <time>2005-01-22T09:29:51Z</time>
      </trkpt>
      <trkpt lat="44.451949596405029" lon="11.198050975799561">
        <ele>102</ele>
        <time>2005-01-22T10:24:03Z</time>
      </trkpt>
      <trkpt lat="44.45197113789618" lon="11.197986602783203">
        <ele>102</ele>
        <time>2005-01-22T10:24:16Z</time>
      </trkpt>
      <trkpt lat="44.452078258618712" lon="11.197836399078369">
        <ele>102</ele>
        <time>2005-01-22T09:36:25Z</time>
      </trkpt>
      <trkpt lat="44.452314376831055" lon="11.197214126586914">
        <ele>100</ele>
        <time>2005-01-22T09:36:45Z</time>
      </trkpt>
      <trkpt lat="44.452571868896484" lon="11.196527481079102">
        <ele>99</ele>
        <time>2005-01-22T09:37:05Z</time>
      </trkpt>
      <trkpt lat="44.452507495880127" lon="11.196420192718506">
        <ele>100</ele>
        <time>2005-01-22T09:37:10Z</time>
      </trkpt>
      <trkpt lat="44.451949596405029" lon="11.196098327636719">
        <ele>100</ele>
        <time>2005-01-22T09:37:29Z</time>
      </trkpt>
      <trkpt lat="44.451498985290527" lon="11.195797920227051">
        <ele>100</ele>
        <time>2005-01-22T09:37:46Z</time>
      </trkpt>
      <trkpt lat="44.45094108581543" lon="11.195476138964295">
        <ele>102</ele>
        <time>2005-01-22T09:38:06Z</time>
      </trkpt>
      <trkpt lat="44.450576305389404" lon="11.195261478424072">
        <ele>104</ele>
        <time>2005-01-22T09:38:22Z</time>
      </trkpt>
      <trkpt lat="44.450490474700928" lon="11.195304393768311">
        <ele>105</ele>
        <time>2005-01-22T09:38:26Z</time>
      </trkpt>
      <trkpt lat="44.450254440307617" lon="11.195690631866455">
        <ele>105</ele>
        <time>2005-01-22T09:38:38Z</time>
      </trkpt>
      <trkpt lat="44.449717998504639" lon="11.19605541229248">
        <ele>108</ele>
        <time>2005-01-22T09:38:59Z</time>
      </trkpt>
      <trkpt lat="44.449288761243224" lon="11.196248531341553">
        <ele>111</ele>
        <time>2005-01-22T09:39:16Z</time>
      </trkpt>
      <trkpt lat="44.448730861768126" lon="11.196398735046387">
        <ele>112</ele>
        <time>2005-01-22T09:39:38Z</time>
      </trkpt>
      <trkpt lat="44.448237419128418" lon="11.19680643081665">
        <ele>114</ele>
        <time>2005-01-22T09:39:57Z</time>
      </trkpt>
      <trkpt lat="44.447722434997559" lon="11.197407161816955">
        <ele>116</ele>
        <time>2005-01-22T09:40:22Z</time>
      </trkpt>
      <trkpt lat="44.447228908538818" lon="11.197578907012939">
        <ele>120</ele>
        <time>2005-01-22T09:40:43Z</time>
      </trkpt>
      <trkpt lat="44.446477890014648" lon="11.19781494140625">
        <ele>119</ele>
        <time>2005-01-22T09:41:09Z</time>
      </trkpt>
      <trkpt lat="44.446091735735536" lon="11.198136806488037">
        <ele>118</ele>
        <time>2005-01-22T09:41:18Z</time>
      </trkpt>
      <trkpt lat="44.445533836260438" lon="11.198844909667969">
        <ele>119</ele>
        <time>2005-01-22T09:41:38Z</time>
      </trkpt>
      <trkpt lat="44.444911479949951" lon="11.199080860242248">
        <ele>120</ele>
        <time>2005-01-22T09:41:58Z</time>
      </trkpt>
      <trkpt lat="44.444353580474854" lon="11.199080860242248">
        <ele>121</ele>
        <time>2005-01-22T09:42:17Z</time>
      </trkpt>
      <trkpt lat="44.44368839263916" lon="11.199274063110352">
        <ele>123</ele>
        <time>2005-01-22T09:42:38Z</time>
      </trkpt>
      <trkpt lat="44.443173408508301" lon="11.199896335601807">
        <ele>124</ele>
        <time>2005-01-22T09:42:58Z</time>
      </trkpt>
      <trkpt lat="44.44274433888495" lon="11.199896335601807">
        <ele>125</ele>
        <time>2005-01-22T09:43:12Z</time>
      </trkpt>
      <trkpt lat="44.442679882049561" lon="11.200046539306641">
        <ele>127</ele>
        <time>2005-01-22T09:44:54Z</time>
      </trkpt>
      <trkpt lat="44.442529678344727" lon="11.200282573699951">
        <ele>127</ele>
        <time>2005-01-22T09:45:06Z</time>
      </trkpt>
      <trkpt lat="44.442443763837218" lon="11.200475692749023">
        <ele>128</ele>
        <time>2005-01-22T09:45:17Z</time>
      </trkpt>
      <trkpt lat="44.442336559295654" lon="11.200690269470215">
        <ele>132</ele>
        <time>2005-01-22T09:45:33Z</time>
      </trkpt>
      <trkpt lat="44.442315101623535" lon="11.200776100158691">
        <ele>133</ele>
        <time>2005-01-22T09:45:40Z</time>
      </trkpt>
      <trkpt lat="44.442443763837218" lon="11.200861930847168">
        <ele>133</ele>
        <time>2005-01-22T09:45:58Z</time>
      </trkpt>
      <trkpt lat="44.442465305328369" lon="11.200861930847168">
        <ele>134</ele>
        <time>2005-01-22T09:46:06Z</time>
      </trkpt>
      <trkpt lat="44.442722797393799" lon="11.200990676879883">
        <ele>137</ele>
        <time>2005-01-22T09:46:24Z</time>
      </trkpt>
      <trkpt lat="44.442808628082275" lon="11.201076507568359">
        <ele>140</ele>
        <time>2005-01-22T09:46:32Z</time>
      </trkpt>
      <trkpt lat="44.44293737411499" lon="11.201248168945313">
        <ele>143</ele>
        <time>2005-01-22T09:46:45Z</time>
      </trkpt>
      <trkpt lat="44.443001663312316" lon="11.201441287994385">
        <ele>145</ele>
        <time>2005-01-22T09:46:58Z</time>
      </trkpt>
      <trkpt lat="44.443044662475586" lon="11.20154857635498">
        <ele>147</ele>
        <time>2005-01-22T09:47:11Z</time>
      </trkpt>
      <trkpt lat="44.443130493164063" lon="11.201698780059814">
        <ele>149</ele>
        <time>2005-01-22T09:47:28Z</time>
      </trkpt>
      <trkpt lat="44.44319486618042" lon="11.201784610748291">
        <ele>151</ele>
        <time>2005-01-22T09:47:39Z</time>
      </trkpt>
      <trkpt lat="44.443345069885254" lon="11.201913440600038">
        <ele>154</ele>
        <time>2005-01-22T09:47:52Z</time>
      </trkpt>
      <trkpt lat="44.44345235824585" lon="11.202149391174316">
        <ele>157</ele>
        <time>2005-01-22T09:48:07Z</time>
      </trkpt>
      <trkpt lat="44.44343090057373" lon="11.202192306518555">
        <ele>157</ele>
        <time>2005-01-22T09:48:16Z</time>
      </trkpt>
      <trkpt lat="44.443280696868896" lon="11.202213764190674">
        <ele>161</ele>
        <time>2005-01-22T09:48:32Z</time>
      </trkpt>
      <trkpt lat="44.443023204803467" lon="11.202149391174316">
        <ele>164</ele>
        <time>2005-01-22T09:48:55Z</time>
      </trkpt>
      <trkpt lat="44.442830085754395" lon="11.202127933502197">
        <ele>166</ele>
        <time>2005-01-22T09:49:05Z</time>
      </trkpt>
      <trkpt lat="44.442808628082275" lon="11.202256679534912">
        <ele>169</ele>
        <time>2005-01-22T09:49:11Z</time>
      </trkpt>
      <trkpt lat="44.443001663312316" lon="11.202385425567627">
        <ele>172</ele>
        <time>2005-01-22T09:49:32Z</time>
      </trkpt>
      <trkpt lat="44.443216323852539" lon="11.202514171600342">
        <ele>174</ele>
        <time>2005-01-22T09:49:51Z</time>
      </trkpt>
      <trkpt lat="44.443366527557373" lon="11.202707290649414">
        <ele>177</ele>
        <time>2005-01-22T09:50:03Z</time>
      </trkpt>
      <trkpt lat="44.443387985229492" lon="11.202836036682129">
        <ele>179</ele>
        <time>2005-01-22T09:50:15Z</time>
      </trkpt>
      <trkpt lat="44.443387985229492" lon="11.202836036682129">
        <ele>179</ele>
        <time>2005-01-22T09:50:17Z</time>
      </trkpt>
      <trkpt lat="44.443366527557373" lon="11.20305061340332">
        <ele>181</ele>
        <time>2005-01-22T09:50:34Z</time>
      </trkpt>
      <trkpt lat="44.443302238360047" lon="11.203222274780273">
        <ele>183</ele>
        <time>2005-01-22T09:50:49Z</time>
      </trkpt>
      <trkpt lat="44.443302238360047" lon="11.203243732452393">
        <ele>183</ele>
        <time>2005-01-22T09:50:51Z</time>
      </trkpt>
      <trkpt lat="44.443237781524658" lon="11.20330810546875">
        <ele>185</ele>
        <time>2005-01-22T09:51:04Z</time>
      </trkpt>
      <trkpt lat="44.443237781524658" lon="11.20330810546875">
        <ele>185</ele>
        <time>2005-01-22T09:51:05Z</time>
      </trkpt>
      <trkpt lat="44.443173408508301" lon="11.203093528747559">
        <ele>189</ele>
        <time>2005-01-22T09:51:19Z</time>
      </trkpt>
      <trkpt lat="44.443173408508301" lon="11.202943325042725">
        <ele>189</ele>
        <time>2005-01-22T09:51:36Z</time>
      </trkpt>
      <trkpt lat="44.443173408508301" lon="11.202921867370605">
        <ele>189</ele>
        <time>2005-01-22T09:51:38Z</time>
      </trkpt>
      <trkpt lat="44.443087577819824" lon="11.202879035845399">
        <ele>191</ele>
        <time>2005-01-22T09:51:48Z</time>
      </trkpt>
      <trkpt lat="44.443044662475586" lon="11.202943325042725">
        <ele>193</ele>
        <time>2005-01-22T09:51:54Z</time>
      </trkpt>
      <trkpt lat="44.443023204803467" lon="11.203093528747559">
        <ele>194</ele>
        <time>2005-01-22T09:52:05Z</time>
      </trkpt>
      <trkpt lat="44.443044662475586" lon="11.203265190124512">
        <ele>198</ele>
        <time>2005-01-22T09:52:17Z</time>
      </trkpt>
      <trkpt lat="44.443044662475586" lon="11.203415393829346">
        <ele>201</ele>
        <time>2005-01-22T09:52:28Z</time>
      </trkpt>
      <trkpt lat="44.443023204803467" lon="11.203436935320497">
        <ele>201</ele>
        <time>2005-01-22T09:52:41Z</time>
      </trkpt>
      <trkpt lat="44.443023204803467" lon="11.203458309173584">
        <ele>202</ele>
        <time>2005-01-22T09:52:48Z</time>
      </trkpt>
      <trkpt lat="44.442958831787109" lon="11.203629970550537">
        <ele>203</ele>
        <time>2005-01-22T09:53:02Z</time>
      </trkpt>
      <trkpt lat="44.442851459607482" lon="11.203758716583252">
        <ele>206</ele>
        <time>2005-01-22T09:53:17Z</time>
      </trkpt>
      <trkpt lat="44.442787170410156" lon="11.203951835632324">
        <ele>210</ele>
        <time>2005-01-22T09:53:33Z</time>
      </trkpt>
      <trkpt lat="44.442808628082275" lon="11.203994834795594">
        <ele>210</ele>
        <time>2005-01-22T09:53:37Z</time>
      </trkpt>
      <trkpt lat="44.442851459607482" lon="11.204145038500428">
        <ele>213</ele>
        <time>2005-01-22T09:53:48Z</time>
      </trkpt>
      <trkpt lat="44.442808628082275" lon="11.204338073730469">
        <ele>215</ele>
        <time>2005-01-22T09:54:05Z</time>
      </trkpt>
      <trkpt lat="44.442787170410156" lon="11.204338073730469">
        <ele>215</ele>
        <time>2005-01-22T09:54:06Z</time>
      </trkpt>
      <trkpt lat="44.442679882049561" lon="11.204488277435303">
        <ele>219</ele>
        <time>2005-01-22T09:54:16Z</time>
      </trkpt>
      <trkpt lat="44.442615509033203" lon="11.204552734270692">
        <ele>220</ele>
        <time>2005-01-22T09:54:26Z</time>
      </trkpt>
      <trkpt lat="44.442465305328369" lon="11.204724311828613">
        <ele>223</ele>
        <time>2005-01-22T09:54:44Z</time>
      </trkpt>
      <trkpt lat="44.442379474639893" lon="11.204895973205566">
        <ele>225</ele>
        <time>2005-01-22T09:54:57Z</time>
      </trkpt>
      <trkpt lat="44.442508220672607" lon="11.205003261566162">
        <ele>227</ele>
        <time>2005-01-22T09:55:14Z</time>
      </trkpt>
      <trkpt lat="44.442679882049561" lon="11.204895973205566">
        <ele>228</ele>
        <time>2005-01-22T09:55:29Z</time>
      </trkpt>
      <trkpt lat="44.442873001098633" lon="11.204788684844971">
        <ele>230</ele>
        <time>2005-01-22T09:55:46Z</time>
      </trkpt>
      <trkpt lat="44.442873001098633" lon="11.204810058698058">
        <ele>230</ele>
        <time>2005-01-22T09:56:08Z</time>
      </trkpt>
      <trkpt lat="44.442873001098633" lon="11.204831600189209">
        <ele>230</ele>
        <time>2005-01-22T09:56:09Z</time>
      </trkpt>
      <trkpt lat="44.44293737411499" lon="11.204938888549805">
        <ele>231</ele>
        <time>2005-01-22T09:56:20Z</time>
      </trkpt>
      <trkpt lat="44.442851459607482" lon="11.205110466107726">
        <ele>234</ele>
        <time>2005-01-22T09:56:33Z</time>
      </trkpt>
      <trkpt lat="44.442679882049561" lon="11.205217838287354">
        <ele>236</ele>
        <time>2005-01-22T09:56:50Z</time>
      </trkpt>
      <trkpt lat="44.442615509033203" lon="11.205282211303711">
        <ele>238</ele>
        <time>2005-01-22T09:57:04Z</time>
      </trkpt>
      <trkpt lat="44.442572593688965" lon="11.205411041155457">
        <ele>239</ele>
        <time>2005-01-22T09:57:18Z</time>
      </trkpt>
      <trkpt lat="44.442465305328369" lon="11.20556116104126">
        <ele>242</ele>
        <time>2005-01-22T09:57:32Z</time>
      </trkpt>
      <trkpt lat="44.442358016967773" lon="11.205732822418213">
        <ele>245</ele>
        <time>2005-01-22T09:57:47Z</time>
      </trkpt>
      <trkpt lat="44.442336559295654" lon="11.205775737762451">
        <ele>245</ele>
        <time>2005-01-22T09:57:51Z</time>
      </trkpt>
      <trkpt lat="44.442358016967773" lon="11.205947399139404">
        <ele>248</ele>
        <time>2005-01-22T09:58:04Z</time>
      </trkpt>
      <trkpt lat="44.442400932312012" lon="11.206097602844238">
        <ele>250</ele>
        <time>2005-01-22T09:58:20Z</time>
      </trkpt>
      <trkpt lat="44.442443763837218" lon="11.206290721893311">
        <ele>253</ele>
        <time>2005-01-22T09:58:32Z</time>
      </trkpt>
      <trkpt lat="44.442486763000488" lon="11.206526840105653">
        <ele>256</ele>
        <time>2005-01-22T09:58:45Z</time>
      </trkpt>
      <trkpt lat="44.442615509033203" lon="11.206870079040527">
        <ele>259</ele>
        <time>2005-01-22T09:59:03Z</time>
      </trkpt>
      <trkpt lat="44.44270133972168" lon="11.20704174041748">
        <ele>260</ele>
        <time>2005-01-22T09:59:19Z</time>
      </trkpt>
      <trkpt lat="44.442851459607482" lon="11.20729923248291">
        <ele>264</ele>
        <time>2005-01-22T09:59:38Z</time>
      </trkpt>
      <trkpt lat="44.442980289459229" lon="11.207470893859863">
        <ele>264</ele>
        <time>2005-01-22T09:59:57Z</time>
      </trkpt>
      <trkpt lat="44.44319486618042" lon="11.207706928253174">
        <ele>267</ele>
        <time>2005-01-22T10:06:22Z</time>
      </trkpt>
      <trkpt lat="44.44345235824585" lon="11.207878589630127">
        <ele>270</ele>
        <time>2005-01-22T10:06:43Z</time>
      </trkpt>
      <trkpt lat="44.443495273590088" lon="11.207878589630127">
        <ele>270</ele>
        <time>2005-01-22T10:06:47Z</time>
      </trkpt>
      <trkpt lat="44.443902969360352" lon="11.207685470581055">
        <ele>273</ele>
        <time>2005-01-22T10:07:14Z</time>
      </trkpt>
      <trkpt lat="44.444160461425781" lon="11.20755672454834">
        <ele>275</ele>
        <time>2005-01-22T10:07:33Z</time>
      </trkpt>
      <trkpt lat="44.444353580474854" lon="11.207363605499268">
        <ele>278</ele>
        <time>2005-01-22T10:07:49Z</time>
      </trkpt>
      <trkpt lat="44.444482326507568" lon="11.20729923248291">
        <ele>280</ele>
        <time>2005-01-22T10:07:59Z</time>
      </trkpt>
      <trkpt lat="44.444546699523926" lon="11.20729923248291">
        <ele>280</ele>
        <time>2005-01-22T10:08:05Z</time>
      </trkpt>
      <trkpt lat="44.444761276245117" lon="11.207213401794434">
        <ele>282</ele>
        <time>2005-01-22T10:08:25Z</time>
      </trkpt>
      <trkpt lat="44.444954395294189" lon="11.207170486450195">
        <ele>282</ele>
        <time>2005-01-22T10:08:40Z</time>
      </trkpt>
      <trkpt lat="44.445276260375977" lon="11.207256317138672">
        <ele>283</ele>
        <time>2005-01-22T10:09:03Z</time>
      </trkpt>
      <trkpt lat="44.445469379425049" lon="11.207320690155029">
        <ele>286</ele>
        <time>2005-01-22T10:09:16Z</time>
      </trkpt>
      <trkpt lat="44.445619583129883" lon="11.207578182220459">
        <ele>288</ele>
        <time>2005-01-22T10:09:34Z</time>
      </trkpt>
      <trkpt lat="44.445619583129883" lon="11.207642639055848">
        <ele>289</ele>
        <time>2005-01-22T10:09:38Z</time>
      </trkpt>
      <trkpt lat="44.445598125457764" lon="11.207728385925293">
        <ele>290</ele>
        <time>2005-01-22T10:09:43Z</time>
      </trkpt>
      <trkpt lat="44.445512294769287" lon="11.207899963483214">
        <ele>294</ele>
        <time>2005-01-22T10:09:53Z</time>
      </trkpt>
      <trkpt lat="44.445490837097168" lon="11.207942962646484">
        <ele>294</ele>
        <time>2005-01-22T10:09:55Z</time>
      </trkpt>
      <trkpt lat="44.44544792175293" lon="11.207985877990723">
        <ele>295</ele>
        <time>2005-01-22T10:09:59Z</time>
      </trkpt>
      <trkpt lat="44.445512294769287" lon="11.207985877990723">
        <ele>296</ele>
        <time>2005-01-22T10:10:04Z</time>
      </trkpt>
      <trkpt lat="44.445705413818359" lon="11.207835674285889">
        <ele>299</ele>
        <time>2005-01-22T10:10:24Z</time>
      </trkpt>
      <trkpt lat="44.445941364392638" lon="11.207664012908936">
        <ele>301</ele>
        <time>2005-01-22T10:10:46Z</time>
      </trkpt>
      <trkpt lat="44.44617748260498" lon="11.207427978515625">
        <ele>300</ele>
        <time>2005-01-22T10:11:04Z</time>
      </trkpt>
      <trkpt lat="44.446456432342529" lon="11.207277774810791">
        <ele>298</ele>
        <time>2005-01-22T10:11:22Z</time>
      </trkpt>
      <trkpt lat="44.44669246673584" lon="11.206934535875916">
        <ele>297</ele>
        <time>2005-01-22T10:11:33Z</time>
      </trkpt>
      <trkpt lat="44.446992874145508" lon="11.206891536712646">
        <ele>297</ele>
        <time>2005-01-22T10:11:51Z</time>
      </trkpt>
      <trkpt lat="44.447271823883057" lon="11.206762790679932">
        <ele>297</ele>
        <time>2005-01-22T10:12:07Z</time>
      </trkpt>
      <trkpt lat="44.447636604309082" lon="11.206633960828185">
        <ele>297</ele>
        <time>2005-01-22T10:12:27Z</time>
      </trkpt>
      <trkpt lat="44.447786808013916" lon="11.206462383270264">
        <ele>298</ele>
        <time>2005-01-22T10:12:33Z</time>
      </trkpt>
      <trkpt lat="44.447765434160829" lon="11.206011772155762">
        <ele>299</ele>
        <time>2005-01-22T10:12:45Z</time>
      </trkpt>
      <trkpt lat="44.447829723358154" lon="11.205625534057617">
        <ele>299</ele>
        <time>2005-01-22T10:12:58Z</time>
      </trkpt>
      <trkpt lat="44.447979927062988" lon="11.205367958173156">
        <ele>300</ele>
        <time>2005-01-22T10:13:10Z</time>
      </trkpt>
      <trkpt lat="44.448237419128418" lon="11.205024719238281">
        <ele>300</ele>
        <time>2005-01-22T10:13:29Z</time>
      </trkpt>
      <trkpt lat="44.448409080505371" lon="11.204810058698058">
        <ele>301</ele>
        <time>2005-01-22T10:13:47Z</time>
      </trkpt>
      <trkpt lat="44.44847353734076" lon="11.204745769500732">
        <ele>303</ele>
        <time>2005-01-22T10:14:00Z</time>
      </trkpt>
      <trkpt lat="44.448537826538086" lon="11.204702937975526">
        <ele>305</ele>
        <time>2005-01-22T10:14:14Z</time>
      </trkpt>
      <trkpt lat="44.448602199554443" lon="11.204659938812256">
        <ele>308</ele>
        <time>2005-01-22T10:14:27Z</time>
      </trkpt>
      <trkpt lat="44.448645114898682" lon="11.204638481140137">
        <ele>310</ele>
        <time>2005-01-22T10:14:37Z</time>
      </trkpt>
      <trkpt lat="44.448709487915039" lon="11.204574108123779">
        <ele>313</ele>
        <time>2005-01-22T10:14:50Z</time>
      </trkpt>
      <trkpt lat="44.448816776275635" lon="11.204531192779541">
        <ele>315</ele>
        <time>2005-01-22T10:15:08Z</time>
      </trkpt>
      <trkpt lat="44.448838233947754" lon="11.204509735107422">
        <ele>314</ele>
        <time>2005-01-22T10:15:19Z</time>
      </trkpt>
      <trkpt lat="44.448838233947754" lon="11.204509735107422">
        <ele>314</ele>
        <time>2005-01-22T10:15:58Z</time>
      </trkpt>
      <trkpt lat="44.448838233947754" lon="11.204509735107422">
        <ele>314</ele>
        <time>2005-01-22T10:16:19Z</time>
      </trkpt>
      <trkpt lat="44.448902606964111" lon="11.204423904418945">
        <ele>314</ele>
        <time>2005-01-22T10:16:52Z</time>
      </trkpt>
      <trkpt lat="44.448966979980469" lon="11.204359531402588">
        <ele>311</ele>
        <time>2005-01-22T10:16:56Z</time>
      </trkpt>
      <trkpt lat="44.449031436815858" lon="11.20429515838623">
        <ele>307</ele>
        <time>2005-01-22T10:16:59Z</time>
      </trkpt>
      <trkpt lat="44.449074268341064" lon="11.204230785369873">
        <ele>304</ele>
        <time>2005-01-22T10:17:01Z</time>
      </trkpt>
      <trkpt lat="44.449117183685303" lon="11.204187870025635">
        <ele>300</ele>
        <time>2005-01-22T10:17:03Z</time>
      </trkpt>
      <trkpt lat="44.449160099029541" lon="11.204102039337158">
        <ele>297</ele>
        <time>2005-01-22T10:17:05Z</time>
      </trkpt>
      <trkpt lat="44.449288761243224" lon="11.203908920288086">
        <ele>291</ele>
        <time>2005-01-22T10:17:09Z</time>
      </trkpt>
      <trkpt lat="44.449374675750732" lon="11.203758716583252">
        <ele>288</ele>
        <time>2005-01-22T10:17:12Z</time>
      </trkpt>
      <trkpt lat="44.449503421783447" lon="11.203608512878418">
        <ele>285</ele>
        <time>2005-01-22T10:17:15Z</time>
      </trkpt>
      <trkpt lat="44.449610710144043" lon="11.203501224517822">
        <ele>283</ele>
        <time>2005-01-22T10:17:17Z</time>
      </trkpt>
      <trkpt lat="44.449760913848877" lon="11.203393936157227">
        <ele>282</ele>
        <time>2005-01-22T10:17:20Z</time>
      </trkpt>
      <trkpt lat="44.449868202209473" lon="11.203329563140869">
        <ele>280</ele>
        <time>2005-01-22T10:17:25Z</time>
      </trkpt>
      <trkpt lat="44.450018405914307" lon="11.203200817108154">
        <ele>281</ele>
        <time>2005-01-22T10:17:34Z</time>
      </trkpt>
      <trkpt lat="44.450018405914307" lon="11.203200817108154">
        <ele>281</ele>
        <time>2005-01-22T10:17:49Z</time>
      </trkpt>
      <trkpt lat="44.450039863586426" lon="11.203200817108154">
        <ele>280</ele>
        <time>2005-01-22T10:18:19Z</time>
      </trkpt>
      <trkpt lat="44.450039863586426" lon="11.202986240386963">
        <ele>277</ele>
        <time>2005-01-22T10:18:26Z</time>
      </trkpt>
      <trkpt lat="44.450082778930664" lon="11.202750205993652">
        <ele>275</ele>
        <time>2005-01-22T10:18:32Z</time>
      </trkpt>
      <trkpt lat="44.450104236602783" lon="11.20255708694458">
        <ele>275</ele>
        <time>2005-01-22T10:18:41Z</time>
      </trkpt>
      <trkpt lat="44.450168609619141" lon="11.202471340075135">
        <ele>269</ele>
        <time>2005-01-22T10:18:45Z</time>
      </trkpt>
      <trkpt lat="44.450232982635498" lon="11.202406883239746">
        <ele>265</ele>
        <time>2005-01-22T10:18:48Z</time>
      </trkpt>
      <trkpt lat="44.450275897979736" lon="11.202385425567627">
        <ele>264</ele>
        <time>2005-01-22T10:18:49Z</time>
      </trkpt>
      <trkpt lat="44.450340270996094" lon="11.202342510223389">
        <ele>261</ele>
        <time>2005-01-22T10:18:51Z</time>
      </trkpt>
      <trkpt lat="44.450361728668213" lon="11.202278137207031">
        <ele>259</ele>
        <time>2005-01-22T10:18:53Z</time>
      </trkpt>
      <trkpt lat="44.450361728668213" lon="11.202213764190674">
        <ele>257</ele>
        <time>2005-01-22T10:18:55Z</time>
      </trkpt>
      <trkpt lat="44.45042610168457" lon="11.202042102813721">
        <ele>253</ele>
        <time>2005-01-22T10:18:59Z</time>
      </trkpt>
      <trkpt lat="44.450469017028809" lon="11.201891899108887">
        <ele>252</ele>
        <time>2005-01-22T10:19:01Z</time>
      </trkpt>
      <trkpt lat="44.450533390045166" lon="11.201677322387695">
        <ele>249</ele>
        <time>2005-01-22T10:19:06Z</time>
      </trkpt>
      <trkpt lat="44.450554763898253" lon="11.201655864715576">
        <ele>248</ele>
        <time>2005-01-22T10:19:43Z</time>
      </trkpt>
      <trkpt lat="44.450576305389404" lon="11.201634407043457">
        <ele>249</ele>
        <time>2005-01-22T10:20:09Z</time>
      </trkpt>
      <trkpt lat="44.450576305389404" lon="11.201634407043457">
        <ele>248</ele>
        <time>2005-01-22T10:20:25Z</time>
      </trkpt>
      <trkpt lat="44.450597763061523" lon="11.2015700340271">
        <ele>247</ele>
        <time>2005-01-22T10:20:37Z</time>
      </trkpt>
      <trkpt lat="44.450576305389404" lon="11.2015700340271">
        <ele>247</ele>
        <time>2005-01-22T10:20:42Z</time>
      </trkpt>
      <trkpt lat="44.450576305389404" lon="11.20135554112494">
        <ele>244</ele>
        <time>2005-01-22T10:20:48Z</time>
      </trkpt>
      <trkpt lat="44.450576305389404" lon="11.201226711273193">
        <ele>239</ele>
        <time>2005-01-22T10:20:51Z</time>
      </trkpt>
      <trkpt lat="44.450597763061523" lon="11.201119422912598">
        <ele>235</ele>
        <time>2005-01-22T10:20:54Z</time>
      </trkpt>
      <trkpt lat="44.450619220733643" lon="11.201054966077209">
        <ele>231</ele>
        <time>2005-01-22T10:20:57Z</time>
      </trkpt>
      <trkpt lat="44.450662136077881" lon="11.200969219207764">
        <ele>228</ele>
        <time>2005-01-22T10:21:00Z</time>
      </trkpt>
      <trkpt lat="44.45068359375" lon="11.200904762372375">
        <ele>224</ele>
        <time>2005-01-22T10:21:02Z</time>
      </trkpt>
      <trkpt lat="44.45068359375" lon="11.200797641649842">
        <ele>220</ele>
        <time>2005-01-22T10:21:05Z</time>
      </trkpt>
      <trkpt lat="44.450640678405762" lon="11.200604438781738">
        <ele>216</ele>
        <time>2005-01-22T10:21:13Z</time>
      </trkpt>
      <trkpt lat="44.450705135241151" lon="11.200540065765381">
        <ele>212</ele>
        <time>2005-01-22T10:21:18Z</time>
      </trkpt>
      <trkpt lat="44.450726509094238" lon="11.200518608093262">
        <ele>212</ele>
        <time>2005-01-22T10:21:19Z</time>
      </trkpt>
      <trkpt lat="44.450726509094238" lon="11.200497234240174">
        <ele>211</ele>
        <time>2005-01-22T10:21:20Z</time>
      </trkpt>
      <trkpt lat="44.450769424438477" lon="11.200411319732666">
        <ele>206</ele>
        <time>2005-01-22T10:21:23Z</time>
      </trkpt>
      <trkpt lat="44.450790882110596" lon="11.200325489044189">
        <ele>202</ele>
        <time>2005-01-22T10:21:26Z</time>
      </trkpt>
      <trkpt lat="44.450812339782715" lon="11.200325489044189">
        <ele>201</ele>
        <time>2005-01-22T10:21:29Z</time>
      </trkpt>
      <trkpt lat="44.450919628143311" lon="11.200346862897277">
        <ele>198</ele>
        <time>2005-01-22T10:21:34Z</time>
      </trkpt>
      <trkpt lat="44.451026916503906" lon="11.200368404388428">
        <ele>193</ele>
        <time>2005-01-22T10:21:38Z</time>
      </trkpt>
      <trkpt lat="44.451134204864502" lon="11.200346862897277">
        <ele>189</ele>
        <time>2005-01-22T10:21:42Z</time>
      </trkpt>
      <trkpt lat="44.45117712020874" lon="11.20030403137207">
        <ele>187</ele>
        <time>2005-01-22T10:21:44Z</time>
      </trkpt>
      <trkpt lat="44.451241493225098" lon="11.200282573699951">
        <ele>183</ele>
        <time>2005-01-22T10:21:47Z</time>
      </trkpt>
      <trkpt lat="44.451263034716249" lon="11.200282573699951">
        <ele>183</ele>
        <time>2005-01-22T10:21:48Z</time>
      </trkpt>
      <trkpt lat="44.451327323913574" lon="11.20030403137207">
        <ele>179</ele>
        <time>2005-01-22T10:21:51Z</time>
      </trkpt>
      <trkpt lat="44.451391696929932" lon="11.20030403137207">
        <ele>177</ele>
        <time>2005-01-22T10:21:55Z</time>
      </trkpt>
      <trkpt lat="44.451477527618408" lon="11.20030403137207">
        <ele>173</ele>
        <time>2005-01-22T10:21:58Z</time>
      </trkpt>
      <trkpt lat="44.451541900634766" lon="11.200325489044189">
        <ele>170</ele>
        <time>2005-01-22T10:22:01Z</time>
      </trkpt>
      <trkpt lat="44.451606273651123" lon="11.200261116027832">
        <ele>166</ele>
        <time>2005-01-22T10:22:04Z</time>
      </trkpt>
      <trkpt lat="44.451735019683838" lon="11.200325489044189">
        <ele>163</ele>
        <time>2005-01-22T10:22:09Z</time>
      </trkpt>
      <trkpt lat="44.451756477355957" lon="11.200325489044189">
        <ele>161</ele>
        <time>2005-01-22T10:22:11Z</time>
      </trkpt>
      <trkpt lat="44.451799392700195" lon="11.200325489044189">
        <ele>160</ele>
        <time>2005-01-22T10:22:33Z</time>
      </trkpt>
      <trkpt lat="44.451842308044434" lon="11.20030403137207">
        <ele>157</ele>
        <time>2005-01-22T10:22:48Z</time>
      </trkpt>
      <trkpt lat="44.451842308044434" lon="11.20030403137207">
        <ele>158</ele>
        <time>2005-01-22T10:22:59Z</time>
      </trkpt>
      <trkpt lat="44.451885223388672" lon="11.200239658355713">
        <ele>155</ele>
        <time>2005-01-22T10:23:02Z</time>
      </trkpt>
      <trkpt lat="44.451906681060791" lon="11.200132369995117">
        <ele>151</ele>
        <time>2005-01-22T10:23:05Z</time>
      </trkpt>
      <trkpt lat="44.451949596405029" lon="11.200003623962402">
        <ele>148</ele>
        <time>2005-01-22T10:23:08Z</time>
      </trkpt>
      <trkpt lat="44.451949596405029" lon="11.199939334765077">
        <ele>145</ele>
        <time>2005-01-22T10:23:10Z</time>
      </trkpt>
      <trkpt lat="44.45197113789618" lon="11.199831962585449">
        <ele>140</ele>
        <time>2005-01-22T10:23:13Z</time>
      </trkpt>
      <trkpt lat="44.451992511749268" lon="11.19981050491333">
        <ele>139</ele>
        <time>2005-01-22T10:23:14Z</time>
      </trkpt>
      <trkpt lat="44.452013969421387" lon="11.199681758880615">
        <ele>133</ele>
        <time>2005-01-22T10:23:17Z</time>
      </trkpt>
      <trkpt lat="44.452035427093506" lon="11.199617385864258">
        <ele>132</ele>
        <time>2005-01-22T10:23:19Z</time>
      </trkpt>
      <trkpt lat="44.452056884765625" lon="11.19957447052002">
        <ele>128</ele>
        <time>2005-01-22T10:23:20Z</time>
      </trkpt>
      <trkpt lat="44.452078258618712" lon="11.199467182159424">
        <ele>124</ele>
        <time>2005-01-22T10:23:22Z</time>
      </trkpt>
      <trkpt lat="44.452099800109863" lon="11.199381435289979">
        <ele>121</ele>
        <time>2005-01-22T10:23:24Z</time>
      </trkpt>
      <trkpt lat="44.452121341601014" lon="11.199338436126709">
        <ele>119</ele>
        <time>2005-01-22T10:23:25Z</time>
      </trkpt>
      <trkpt lat="44.452099800109863" lon="11.199252605438232">
        <ele>116</ele>
        <time>2005-01-22T10:23:32Z</time>
      </trkpt>
      <trkpt lat="44.452078258618712" lon="11.199123859405518">
        <ele>114</ele>
        <time>2005-01-22T10:23:36Z</time>
      </trkpt>
      <trkpt lat="44.452078258618712" lon="11.19880199432373">
        <ele>110</ele>
        <time>2005-01-22T10:23:40Z</time>
      </trkpt>
      <trkpt lat="44.452056884765625" lon="11.198630332946777">
        <ele>107</ele>
        <time>2005-01-22T10:23:43Z</time>
      </trkpt>
      <trkpt lat="44.451992511749268" lon="11.198265636339784">
        <ele>104</ele>
        <time>2005-01-22T10:23:55Z</time>
      </trkpt>
      <trkpt lat="44.451949596405029" lon="11.197986602783203">
        <ele>104</ele>
        <time>2005-01-22T10:28:34Z</time>
      </trkpt>
      <trkpt lat="44.45218563079834" lon="11.197643280029297">
        <ele>103</ele>
        <time>2005-01-22T10:28:52Z</time>
      </trkpt>
      <trkpt lat="44.452335834503174" lon="11.197128295898437">
        <ele>102</ele>
        <time>2005-01-22T10:29:06Z</time>
      </trkpt>
      <trkpt lat="44.452593326568604" lon="11.196506023406982">
        <ele>101</ele>
        <time>2005-01-22T10:29:26Z</time>
      </trkpt>
      <trkpt lat="44.452829360961914" lon="11.196484565734863">
        <ele>102</ele>
        <time>2005-01-22T10:29:37Z</time>
      </trkpt>
      <trkpt lat="44.453215599060059" lon="11.196506023406982">
        <ele>101</ele>
        <time>2005-01-22T10:29:55Z</time>
      </trkpt>
      <trkpt lat="44.453365802764893" lon="11.196441734209657">
        <ele>103</ele>
        <time>2005-01-22T10:30:10Z</time>
      </trkpt>
      <trkpt lat="44.453387260437012" lon="11.196420192718506">
        <ele>103</ele>
        <time>2005-01-22T10:30:13Z</time>
      </trkpt>
      <trkpt lat="44.453516006469727" lon="11.19605541229248">
        <ele>103</ele>
        <time>2005-01-22T10:30:35Z</time>
      </trkpt>
      <trkpt lat="44.453516006469727" lon="11.19605541229248">
        <ele>103</ele>
        <time>2005-01-22T10:30:44Z</time>
      </trkpt>
      <trkpt lat="44.453816413879395" lon="11.196269989013672">
        <ele>102</ele>
        <time>2005-01-22T10:30:56Z</time>
      </trkpt>
      <trkpt lat="44.454352939501405" lon="11.196849262341857">
        <ele>101</ele>
        <time>2005-01-22T10:31:14Z</time>
      </trkpt>
      <trkpt lat="44.454696178436279" lon="11.197214126586914">
        <ele>100</ele>
        <time>2005-01-22T10:31:31Z</time>
      </trkpt>
      <trkpt lat="44.45518970489502" lon="11.197707736864686">
        <ele>99</ele>
        <time>2005-01-22T10:31:49Z</time>
      </trkpt>
      <trkpt lat="44.455897808074951" lon="11.198394298553467">
        <ele>98</ele>
        <time>2005-01-22T10:32:08Z</time>
      </trkpt>
      <trkpt lat="44.45667028427124" lon="11.199188232421875">
        <ele>97</ele>
        <time>2005-01-22T10:32:28Z</time>
      </trkpt>
      <trkpt lat="44.457399761304259" lon="11.199917793273926">
        <ele>96</ele>
        <time>2005-01-22T10:32:47Z</time>
      </trkpt>
      <trkpt lat="44.458129405975342" lon="11.200089538469911">
        <ele>95</ele>
        <time>2005-01-22T10:33:03Z</time>
      </trkpt>
      <trkpt lat="44.458580017089844" lon="11.200110912322998">
        <ele>95</ele>
        <time>2005-01-22T10:33:12Z</time>
      </trkpt>
      <trkpt lat="44.459159374237061" lon="11.200046539306641">
        <ele>94</ele>
        <time>2005-01-22T10:33:24Z</time>
      </trkpt>
      <trkpt lat="44.459803104400635" lon="11.199746131896973">
        <ele>92</ele>
        <time>2005-01-22T10:33:41Z</time>
      </trkpt>
      <trkpt lat="44.459846019744873" lon="11.199724674224854">
        <ele>91</ele>
        <time>2005-01-22T10:33:54Z</time>
      </trkpt>
      <trkpt lat="44.459888935089111" lon="11.199767589569092">
        <ele>92</ele>
        <time>2005-01-22T10:34:01Z</time>
      </trkpt>
      <trkpt lat="44.46016788482666" lon="11.200089538469911">
        <ele>92</ele>
        <time>2005-01-22T10:34:15Z</time>
      </trkpt>
      <trkpt lat="44.460339462384582" lon="11.200003623962402">
        <ele>92</ele>
        <time>2005-01-22T10:34:19Z</time>
      </trkpt>
      <trkpt lat="44.461090564727783" lon="11.199831962585449">
        <ele>90</ele>
        <time>2005-01-22T10:34:35Z</time>
      </trkpt>
      <trkpt lat="44.461863040924072" lon="11.19981050491333">
        <ele>89</ele>
        <time>2005-01-22T10:34:55Z</time>
      </trkpt>
      <trkpt lat="44.46265697479248" lon="11.199831962585449">
        <ele>89</ele>
        <time>2005-01-22T10:35:16Z</time>
      </trkpt>
      <trkpt lat="44.463515281677246" lon="11.199960708618164">
        <ele>88</ele>
        <time>2005-01-22T10:35:38Z</time>
      </trkpt>
      <trkpt lat="44.463987434282899" lon="11.200110912322998">
        <ele>90</ele>
        <time>2005-01-22T10:35:55Z</time>
      </trkpt>
      <trkpt lat="44.46441650390625" lon="11.200432777404785">
        <ele>89</ele>
        <time>2005-01-22T10:36:07Z</time>
      </trkpt>
      <trkpt lat="44.464845741167665" lon="11.200840473175049">
        <ele>89</ele>
        <time>2005-01-22T10:36:21Z</time>
      </trkpt>
      <trkpt lat="44.465360641479492" lon="11.200990676879883">
        <ele>89</ele>
        <time>2005-01-22T10:36:35Z</time>
      </trkpt>
      <trkpt lat="44.466090202331543" lon="11.201441287994385">
        <ele>89</ele>
        <time>2005-01-22T10:36:50Z</time>
      </trkpt>
      <trkpt lat="44.467012882232666" lon="11.201848983764648">
        <ele>90</ele>
        <time>2005-01-22T10:37:09Z</time>
      </trkpt>
      <trkpt lat="44.467377662658691" lon="11.201870441436768">
        <ele>92</ele>
        <time>2005-01-22T10:37:16Z</time>
      </trkpt>
      <trkpt lat="44.467849731445313" lon="11.20180606842041">
        <ele>95</ele>
        <time>2005-01-22T10:37:26Z</time>
      </trkpt>
      <trkpt lat="44.4681715965271" lon="11.20180606842041">
        <ele>98</ele>
        <time>2005-01-22T10:37:34Z</time>
      </trkpt>
      <trkpt lat="44.468300258740783" lon="11.201870441436768">
        <ele>99</ele>
        <time>2005-01-22T10:37:38Z</time>
      </trkpt>
      <trkpt lat="44.468815326690674" lon="11.202685832977295">
        <ele>97</ele>
        <time>2005-01-22T10:37:54Z</time>
      </trkpt>
      <trkpt lat="44.469501972198486" lon="11.203887462615967">
        <ele>95</ele>
        <time>2005-01-22T10:38:13Z</time>
      </trkpt>
      <trkpt lat="44.470295906066895" lon="11.205132007598877">
        <ele>94</ele>
        <time>2005-01-22T10:38:33Z</time>
      </trkpt>
      <trkpt lat="44.470875263214111" lon="11.205604076385498">
        <ele>95</ele>
        <time>2005-01-22T10:38:43Z</time>
      </trkpt>
      <trkpt lat="44.471454620361328" lon="11.205968940630555">
        <ele>92</ele>
        <time>2005-01-22T10:38:52Z</time>
      </trkpt>
      <trkpt lat="44.47166919708252" lon="11.206290721893311">
        <ele>92</ele>
        <time>2005-01-22T10:38:56Z</time>
      </trkpt>
      <trkpt lat="44.472205638885498" lon="11.207857131958008">
        <ele>90</ele>
        <time>2005-01-22T10:39:12Z</time>
      </trkpt>
      <trkpt lat="44.4723557587713" lon="11.209123134613037">
        <ele>88</ele>
        <time>2005-01-22T10:39:25Z</time>
      </trkpt>
      <trkpt lat="44.472699165344238" lon="11.210196018218994">
        <ele>85</ele>
        <time>2005-01-22T10:39:38Z</time>
      </trkpt>
      <trkpt lat="44.473450183868408" lon="11.211848258972168">
        <ele>85</ele>
        <time>2005-01-22T10:39:58Z</time>
      </trkpt>
      <trkpt lat="44.473707675933838" lon="11.212427616119385">
        <ele>84</ele>
        <time>2005-01-22T10:40:05Z</time>
      </trkpt>
      <trkpt lat="44.474351406097412" lon="11.213693618774414">
        <ele>82</ele>
        <time>2005-01-22T10:40:20Z</time>
      </trkpt>
      <trkpt lat="44.474866390228271" lon="11.214466094970703">
        <ele>80</ele>
        <time>2005-01-22T10:40:30Z</time>
      </trkpt>
      <trkpt lat="44.475166797637939" lon="11.215560436248779">
        <ele>77</ele>
        <time>2005-01-22T10:40:41Z</time>
      </trkpt>
      <trkpt lat="44.475596034899354" lon="11.217362880706787">
        <ele>75</ele>
        <time>2005-01-22T10:40:59Z</time>
      </trkpt>
      <trkpt lat="44.476282596588135" lon="11.218822002410889">
        <ele>74</ele>
        <time>2005-01-22T10:41:17Z</time>
      </trkpt>
      <trkpt lat="44.477183818817139" lon="11.220409870147705">
        <ele>74</ele>
        <time>2005-01-22T10:41:38Z</time>
      </trkpt>
      <trkpt lat="44.477441310882568" lon="11.220903396606445">
        <ele>74</ele>
        <time>2005-01-22T10:41:44Z</time>
      </trkpt>
      <trkpt lat="44.47789192199707" lon="11.222555637359619">
        <ele>74</ele>
        <time>2005-01-22T10:42:01Z</time>
      </trkpt>
      <trkpt lat="44.478428363800049" lon="11.224079132080078">
        <ele>77</ele>
        <time>2005-01-22T10:42:18Z</time>
      </trkpt>
      <trkpt lat="44.478771686553955" lon="11.22502326965332">
        <ele>80</ele>
        <time>2005-01-22T10:42:32Z</time>
      </trkpt>
      <trkpt lat="44.478836059570313" lon="11.225173473358154">
        <ele>80</ele>
        <time>2005-01-22T10:42:34Z</time>
      </trkpt>
      <trkpt lat="44.479179382324219" lon="11.225709915161133">
        <ele>78</ele>
        <time>2005-01-22T10:42:42Z</time>
      </trkpt>
      <trkpt lat="44.479243839159608" lon="11.226203441619873">
        <ele>78</ele>
        <time>2005-01-22T10:42:47Z</time>
      </trkpt>
      <trkpt lat="44.479243839159608" lon="11.226611137390137">
        <ele>77</ele>
        <time>2005-01-22T10:42:51Z</time>
      </trkpt>
      <trkpt lat="44.479629993438721" lon="11.227254867553711">
        <ele>75</ele>
        <time>2005-01-22T10:42:59Z</time>
      </trkpt>
      <trkpt lat="44.479715824127197" lon="11.22727632522583">
        <ele>74</ele>
        <time>2005-01-22T10:43:00Z</time>
      </trkpt>
      <trkpt lat="44.480166435241699" lon="11.227426528930664">
        <ele>73</ele>
        <time>2005-01-22T10:43:06Z</time>
      </trkpt>
      <trkpt lat="44.481003284454346" lon="11.228156089782715">
        <ele>72</ele>
        <time>2005-01-22T10:43:19Z</time>
      </trkpt>
      <trkpt lat="44.481754302978516" lon="11.228671073913574">
        <ele>71</ele>
        <time>2005-01-22T10:43:30Z</time>
      </trkpt>
      <trkpt lat="44.482119083404541" lon="11.229400634765625">
        <ele>70</ele>
        <time>2005-01-22T10:43:38Z</time>
      </trkpt>
      <trkpt lat="44.482119083404541" lon="11.229636669158936">
        <ele>69</ele>
        <time>2005-01-22T10:43:40Z</time>
      </trkpt>
      <trkpt lat="44.482269287109375" lon="11.231181621551514">
        <ele>67</ele>
        <time>2005-01-22T10:43:54Z</time>
      </trkpt>
      <trkpt lat="44.482333660125732" lon="11.232683658599854">
        <ele>67</ele>
        <time>2005-01-22T10:44:09Z</time>
      </trkpt>
      <trkpt lat="44.482698440551758" lon="11.234185695648193">
        <ele>65</ele>
        <time>2005-01-22T10:44:25Z</time>
      </trkpt>
      <trkpt lat="44.482741439715028" lon="11.235344409942627">
        <ele>65</ele>
        <time>2005-01-22T10:44:37Z</time>
      </trkpt>
      <trkpt lat="44.482719898223877" lon="11.236589038744569">
        <ele>65</ele>
        <time>2005-01-22T10:44:52Z</time>
      </trkpt>
      <trkpt lat="44.482805728912354" lon="11.237468719482422">
        <ele>66</ele>
        <time>2005-01-22T10:45:03Z</time>
      </trkpt>
      <trkpt lat="44.48284856043756" lon="11.237597465515137">
        <ele>66</ele>
        <time>2005-01-22T10:45:05Z</time>
      </trkpt>
      <trkpt lat="44.48338508605957" lon="11.239099502563477">
        <ele>68</ele>
        <time>2005-01-22T10:45:25Z</time>
      </trkpt>
      <trkpt lat="44.483642578125" lon="11.24000072479248">
        <ele>67</ele>
        <time>2005-01-22T10:45:39Z</time>
      </trkpt>
      <trkpt lat="44.483664035797119" lon="11.240215301513672">
        <ele>67</ele>
        <time>2005-01-22T10:45:42Z</time>
      </trkpt>
      <trkpt lat="44.484007358551025" lon="11.241867458447814">
        <ele>64</ele>
        <time>2005-01-22T10:46:05Z</time>
      </trkpt>
      <trkpt lat="44.484179019927979" lon="11.242554187774658">
        <ele>64</ele>
        <time>2005-01-22T10:46:14Z</time>
      </trkpt>
      <trkpt lat="44.484350681304932" lon="11.24375581741333">
        <ele>64</ele>
        <time>2005-01-22T10:46:32Z</time>
      </trkpt>
      <trkpt lat="44.484350681304932" lon="11.243970394134521">
        <ele>65</ele>
        <time>2005-01-22T10:46:35Z</time>
      </trkpt>
      <trkpt lat="44.484200477600098" lon="11.245150566101074">
        <ele>67</ele>
        <time>2005-01-22T10:46:52Z</time>
      </trkpt>
      <trkpt lat="44.484093189239502" lon="11.245558261871338">
        <ele>66</ele>
        <time>2005-01-22T10:46:58Z</time>
      </trkpt>
      <trkpt lat="44.483470916748047" lon="11.246352195739746">
        <ele>68</ele>
        <time>2005-01-22T10:47:15Z</time>
      </trkpt>
      <trkpt lat="44.482998764142394" lon="11.246845722198486">
        <ele>69</ele>
        <time>2005-01-22T10:47:27Z</time>
      </trkpt>
      <trkpt lat="44.48289155960083" lon="11.247060298919678">
        <ele>69</ele>
        <time>2005-01-22T10:47:31Z</time>
      </trkpt>
      <trkpt lat="44.482526779174805" lon="11.248369216918945">
        <ele>70</ele>
        <time>2005-01-22T10:47:52Z</time>
      </trkpt>
      <trkpt lat="44.48190450668335" lon="11.249399185180664">
        <ele>70</ele>
        <time>2005-01-22T10:48:11Z</time>
      </trkpt>
      <trkpt lat="44.481346607208252" lon="11.250514984130859">
        <ele>70</ele>
        <time>2005-01-22T10:48:29Z</time>
      </trkpt>
      <trkpt lat="44.481410980224609" lon="11.251459121704102">
        <ele>70</ele>
        <time>2005-01-22T10:48:42Z</time>
      </trkpt>
      <trkpt lat="44.481625640764832" lon="11.25300407409668">
        <ele>68</ele>
        <time>2005-01-22T10:49:02Z</time>
      </trkpt>
      <trkpt lat="44.48164701461792" lon="11.253840923309326">
        <ele>68</ele>
        <time>2005-01-22T10:49:13Z</time>
      </trkpt>
      <trkpt lat="44.481582641601563" lon="11.254119873046875">
        <ele>68</ele>
        <time>2005-01-22T10:49:17Z</time>
      </trkpt>
      <trkpt lat="44.481539726257324" lon="11.25424861907959">
        <ele>68</ele>
        <time>2005-01-22T10:49:19Z</time>
      </trkpt>
      <trkpt lat="44.481518268585205" lon="11.254591941833496">
        <ele>68</ele>
        <time>2005-01-22T10:49:24Z</time>
      </trkpt>
      <trkpt lat="44.481410980224609" lon="11.255664825439453">
        <ele>68</ele>
        <time>2005-01-22T10:49:39Z</time>
      </trkpt>
      <trkpt lat="44.481346607208252" lon="11.256201267242432">
        <ele>66</ele>
        <time>2005-01-22T10:49:47Z</time>
      </trkpt>
      <trkpt lat="44.481325065717101" lon="11.256608963012695">
        <ele>68</ele>
        <time>2005-01-22T10:49:53Z</time>
      </trkpt>
      <trkpt lat="44.481303691864014" lon="11.256952285766602">
        <ele>66</ele>
        <time>2005-01-22T10:49:58Z</time>
      </trkpt>
      <trkpt lat="44.481368064880371" lon="11.258347034454346">
        <ele>68</ele>
        <time>2005-01-22T10:50:16Z</time>
      </trkpt>
      <trkpt lat="44.48138952255249" lon="11.258883476257324">
        <ele>66</ele>
        <time>2005-01-22T10:50:22Z</time>
      </trkpt>
      <trkpt lat="44.481432437896729" lon="11.259140968322754">
        <ele>66</ele>
        <time>2005-01-22T10:50:25Z</time>
      </trkpt>
      <trkpt lat="44.481432437896729" lon="11.259548664093018">
        <ele>65</ele>
        <time>2005-01-22T10:50:34Z</time>
      </trkpt>
      <trkpt lat="44.481410980224609" lon="11.259956359863281">
        <ele>64</ele>
        <time>2005-01-22T10:50:42Z</time>
      </trkpt>
      <trkpt lat="44.481303691864014" lon="11.260213935747743">
        <ele>63</ele>
        <time>2005-01-22T10:50:46Z</time>
      </trkpt>
      <trkpt lat="44.481196403503418" lon="11.260342597961426">
        <ele>63</ele>
        <time>2005-01-22T10:50:54Z</time>
      </trkpt>
      <trkpt lat="44.481132030487061" lon="11.260471260175109">
        <ele>62</ele>
        <time>2005-01-22T10:50:58Z</time>
      </trkpt>
      <trkpt lat="44.480659961700439" lon="11.261286735534668">
        <ele>61</ele>
        <time>2005-01-22T10:51:12Z</time>
      </trkpt>
      <trkpt lat="44.479737281799316" lon="11.262466907501221">
        <ele>59</ele>
        <time>2005-01-22T10:51:32Z</time>
      </trkpt>
      <trkpt lat="44.479286670684814" lon="11.263089179992676">
        <ele>56</ele>
        <time>2005-01-22T10:51:41Z</time>
      </trkpt>
      <trkpt lat="44.479179382324219" lon="11.263217926025391">
        <ele>56</ele>
        <time>2005-01-22T10:51:43Z</time>
      </trkpt>
      <trkpt lat="44.478814601898193" lon="11.264505386352539">
        <ele>56</ele>
        <time>2005-01-22T10:51:56Z</time>
      </trkpt>
      <trkpt lat="44.478771686553955" lon="11.264805793762207">
        <ele>57</ele>
        <time>2005-01-22T10:51:59Z</time>
      </trkpt>
      <trkpt lat="44.479115009307861" lon="11.266393661499023">
        <ele>56</ele>
        <time>2005-01-22T10:52:17Z</time>
      </trkpt>
      <trkpt lat="44.479200839996338" lon="11.266608238220215">
        <ele>55</ele>
        <time>2005-01-22T10:52:21Z</time>
      </trkpt>
      <trkpt lat="44.479415416717529" lon="11.267251968383789">
        <ele>54</ele>
        <time>2005-01-22T10:52:35Z</time>
      </trkpt>
      <trkpt lat="44.479651534929872" lon="11.26821756362915">
        <ele>54</ele>
        <time>2005-01-22T10:52:47Z</time>
      </trkpt>
      <trkpt lat="44.479672908782959" lon="11.268603801727295">
        <ele>52</ele>
        <time>2005-01-22T10:52:51Z</time>
      </trkpt>
      <trkpt lat="44.479479789733887" lon="11.270191669464111">
        <ele>50</ele>
        <time>2005-01-22T10:53:08Z</time>
      </trkpt>
      <trkpt lat="44.479372501373291" lon="11.270663738250732">
        <ele>50</ele>
        <time>2005-01-22T10:53:14Z</time>
      </trkpt>
      <trkpt lat="44.479222297668457" lon="11.271007061004639">
        <ele>51</ele>
        <time>2005-01-22T10:53:23Z</time>
      </trkpt>
      <trkpt lat="44.479050636291504" lon="11.271243095397949">
        <ele>53</ele>
        <time>2005-01-22T10:53:33Z</time>
      </trkpt>
      <trkpt lat="44.479029178619385" lon="11.2712646368891">
        <ele>53</ele>
        <time>2005-01-22T10:53:34Z</time>
      </trkpt>
      <trkpt lat="44.479050636291504" lon="11.271543502807617">
        <ele>53</ele>
        <time>2005-01-22T10:53:40Z</time>
      </trkpt>
      <trkpt lat="44.479093635454774" lon="11.271800994873047">
        <ele>54</ele>
        <time>2005-01-22T10:53:45Z</time>
      </trkpt>
    </trkseg>
  </trk>

</gpx>
